UA368 / N75426 7700 Squawk Report (12th of July, 2018)

Aircraft B739 Reg No. N75426 Age 10 years old
Model 737 Jet engines 2 First flight 15-07-08
Registered 30-11-11 Rollout 25-06-08 Delivered 25-07-08
Construction No. 31622 Line No. 2676 Series 924(ER)
ADSHEX AA2BA2 Airline name United Airlines Owner N/A
Airfield based Houston-George Bush Intercontinental~TX~N First tracked 2011-04-01 15:13:07

Flight history for N75426

Route Flight No Date Playback
Norfolk Intl (ORF) - Chicago Ohare Intl (ORD) UA2249 2018-07-23 16:21:00
Chicago Ohare Intl (ORD) - Norfolk Intl (ORF) UA1892 2018-07-23 13:06:00
???? UA2553 2018-07-23 11:23:00
???? UA2506 2018-07-23 00:31:00
???? UA2552 2018-07-22 23:25:00
Minneapolis St Paul Intl (MSP) - Chicago Ohare Intl (ORD) UA1633 2018-07-22 16:27:00
Chicago Ohare Intl (ORD) - Minneapolis St Paul Intl (MSP) UA1683 2018-07-22 15:36:00
Punta Cana Intl (PUJ) - Chicago Ohare Intl (ORD) UA1664 2018-07-21 22:00:00
Washington Dulles Intl (IAD) - Punta Cana Intl (PUJ) UA1661 2018-07-21 17:46:00
George Bush Intercontinental (IAH) - San Diego Intl (SAN) - Washington Dulles Intl (IAD) UA1916 2018-07-21 12:52:00
Washington Dulles Intl (IAD) - San Diego Intl (SAN) UA2303 2018-07-21 02:58:00
Phoenix Sky Harbor Intl (PHX) - Washington Dulles Intl (IAD) UA316 2018-07-20 22:07:00
Chicago Ohare Intl (ORD) - Phoenix Sky Harbor Intl (PHX) UA483 2018-07-20 15:36:00
Denver Intl (DEN) - Chicago Ohare Intl (ORD) - McCarran Intl (LAS) UA254 2018-07-20 04:03:00
Chicago Ohare Intl (ORD) - Denver Intl (DEN) UA459 2018-07-20 00:27:00
Newark Liberty Intl (EWR) - Fort Lauderdale Hollywood Intl (FLL) - Chicago Ohare Intl (ORD) - George Bush Intercontinental (IAH) UA1290 2018-07-19 21:03:00
Washington Dulles Intl (IAD) - Fort Lauderdale Hollywood Intl (FLL) UA1785 2018-07-19 15:54:00
Newark Liberty Intl (EWR) - Washington Dulles Intl (IAD) UA997 2018-07-19 13:14:00
McCarran Intl (LAS) - Newark Liberty Intl (EWR) UA1999 2018-07-19 10:05:00
???? UA2048 2018-07-19 04:31:00
Time Lat Lon Altitude Heading Speed Vertical Rate
2018-07-12 15:05:10 GMT 33.440872 -112.026161 1,050 90 140 -512
2018-07-12 15:05:06 GMT 33.440845 -112.028656 1,100 90 140 -512
2018-07-12 15:04:57 GMT 33.440891 -112.036217 1,325 90 137 -832
2018-07-12 15:04:49 GMT 33.440891 -112.042557 1,325 90 137 -832
2018-07-12 15:04:46 GMT 33.440918 -112.044670 1,375 90 139 -768
2018-07-12 15:04:43 GMT 33.440918 -112.046539 1,375 90 139 -768
2018-07-12 15:04:34 GMT 33.440872 -112.053078 1,475 90 139 -704
2018-07-12 15:04:26 GMT 33.440845 -112.060768 1,575 90 139 -512
2018-07-12 15:04:23 GMT 33.440845 -112.061722 1,600 90 139 -640
2018-07-12 15:04:16 GMT 33.440918 -112.067581 1,700 90 138 -704
2018-07-12 15:04:10 GMT 33.440964 -112.071091 1,750 90 140 -704
2018-07-12 15:04:03 GMT 33.440918 -112.076698 1,850 89 140 -896
2018-07-12 15:04:00 GMT 33.440918 -112.080269 1,925 90 140 -1024
2018-07-12 15:03:53 GMT 33.440891 -112.085381 2,025 89 143 -768
2018-07-12 15:03:48 GMT 33.440891 -112.089355 2,075 90 145 -640
2018-07-12 15:03:40 GMT 33.440872 -112.094879 2,150 89 147 -768
2018-07-12 15:03:36 GMT 33.440872 -112.098831 2,225 90 147 -960
2018-07-12 15:03:28 GMT 33.440918 -112.105644 2,325 90 150 -512
2018-07-12 15:03:24 GMT 33.440918 -112.108231 2,350 90 150 -832
2018-07-12 15:03:16 GMT 33.441055 -112.114326 2,525 89 157 -704
2018-07-12 15:03:12 GMT 33.441032 -112.118729 2,525 89 156 -768
2018-07-12 15:03:06 GMT 33.440987 -112.123940 2,600 88 159 -704
2018-07-12 15:03:01 GMT 33.440918 -112.128334 2,650 88 159 -768
2018-07-12 15:02:54 GMT 33.440826 -112.134483 2,750 88 158 -960
2018-07-12 15:02:50 GMT 33.440781 -112.138168 2,800 89 162 -704
2018-07-12 15:02:44 GMT 33.440781 -112.143547 2,850 91 167 -384
2018-07-12 15:02:40 GMT 33.440826 -112.147339 2,900 91 171 -832
2018-07-12 15:02:37 GMT 33.440872 -112.148712 2,925 91 171 -832
2018-07-12 15:02:33 GMT 33.440941 -112.154152 3,025 90 173 -1024
2018-07-12 15:02:27 GMT 33.441032 -112.159592 3,100 91 175 -768
2018-07-12 15:02:21 GMT 33.441128 -112.164635 3,175 90 178 -768
2018-07-12 15:02:17 GMT 33.441193 -112.167992 3,225 91 181 -704
2018-07-12 15:02:14 GMT 33.441219 -112.170975 3,250 90 182 -896
2018-07-12 15:02:09 GMT 33.441330 -112.176285 3,350 90 184 -1152
2018-07-12 15:02:02 GMT 33.441406 -112.183136 3,450 90 188 -832
2018-07-12 15:01:57 GMT 33.441498 -112.188347 3,525 90 191 -704
2018-07-12 15:01:52 GMT 33.441498 -112.195076 3,675 90 200 -832
2018-07-12 15:01:48 GMT 33.441498 -112.198776 3,625 90 198 -768
2018-07-12 15:01:40 GMT 33.441513 -112.208145 3,775 89 202 -1088
2018-07-12 15:01:37 GMT 33.441498 -112.210876 3,800 89 203 -1088
2018-07-12 15:01:28 GMT 33.441360 -112.220917 3,975 87 207 -960
2018-07-12 15:01:15 GMT 33.440781 -112.236710 4,225 87 213 -1536
2018-07-12 15:01:04 GMT 33.440369 -112.249458 4,450 88 222 -1088
2018-07-12 15:00:53 GMT 33.440323 -112.263741 4,650 90 231 -1344
2018-07-12 15:00:49 GMT 33.440369 -112.268356 4,750 90 232 -1600
2018-07-12 15:00:42 GMT 33.440460 -112.277580 4,950 90 233 -2048
2018-07-12 15:00:38 GMT 33.440506 -112.283127 5,100 90 234 -2048
2018-07-12 15:00:31 GMT 33.440643 -112.292084 5,300 90 236 -1600
2018-07-12 15:00:25 GMT 33.440708 -112.300339 5,450 90 242 -1216
2018-07-12 15:00:20 GMT 33.440735 -112.306473 5,525 89 246 -1152
2018-07-12 15:00:13 GMT 33.440735 -112.316528 5,675 90 251 -1408
2018-07-12 15:00:07 GMT 33.440735 -112.322464 5,775 90 251 -1344
2018-07-12 15:00:01 GMT 33.440800 -112.331505 5,900 90 254 -832
2018-07-12 14:59:56 GMT 33.440918 -112.340096 5,950 90 257 -192
2018-07-12 14:59:45 GMT 33.441055 -112.355362 5,975 90 258 64
2018-07-12 14:59:33 GMT 33.441174 -112.371979 5,975 90 258 -64
2018-07-12 14:59:22 GMT 33.441238 -112.388657 6,075 90 256 -832
2018-07-12 14:59:11 GMT 33.441265 -112.403923 6,325 90 256 -1600
2018-07-12 14:59:00 GMT 33.441284 -112.419579 6,600 90 256 -1408
2018-07-12 14:58:50 GMT 33.441311 -112.433800 6,825 89 258 -1408
2018-07-12 14:58:47 GMT 33.441330 -112.436058 6,875 89 258 -1344
2018-07-12 14:58:38 GMT 33.441311 -112.451515 7,075 89 261 -1152
2018-07-12 14:58:34 GMT 33.441284 -112.463692 7,225 89 263 -1024
2018-07-12 14:58:25 GMT 33.441238 -112.470390 7,325 90 265 -832
2018-07-12 14:58:22 GMT 33.441265 -112.472588 7,325 90 265 -832
2018-07-12 14:58:16 GMT 33.441284 -112.482750 7,425 90 270 -768
2018-07-12 14:58:13 GMT 33.441284 -112.487968 7,450 90 271 -832
2018-07-12 14:58:01 GMT 33.441311 -112.505882 7,650 90 274 -1280
2018-07-12 14:57:48 GMT 33.441360 -112.532623 7,950 90 279 0
2018-07-12 14:57:41 GMT 33.441376 -112.536148 7,950 90 280 64
2018-07-12 14:57:37 GMT 33.441422 -112.542351 7,950 90 280 64
2018-07-12 14:57:30 GMT 33.441467 -112.552956 7,950 90 286 -256
2018-07-12 14:57:26 GMT 33.441498 -112.558296 8,000 90 288 -640
2018-07-12 14:57:18 GMT 33.441559 -112.572067 8,150 90 290 -1472
2018-07-12 14:57:13 GMT 33.441605 -112.578003 8,250 90 291 -1472
2018-07-12 14:57:06 GMT 33.441685 -112.591026 8,450 90 291 -1536
2018-07-12 14:57:03 GMT 33.441730 -112.597137 8,550 90 292 -1536
2018-07-12 14:56:55 GMT 33.441788 -112.609863 8,750 90 293 -1536
2018-07-12 14:56:51 GMT 33.441788 -112.615250 8,825 90 293 -1472
2018-07-12 14:56:43 GMT 33.441826 -112.630157 9,050 90 294 -1472
2018-07-12 14:56:39 GMT 33.441826 -112.636322 9,150 90 294 -1472
2018-07-12 14:56:34 GMT 33.441826 -112.642990 9,250 90 295 -1536
2018-07-12 14:56:29 GMT 33.441833 -112.650955 9,375 90 296 -1536
2018-07-12 14:56:22 GMT 33.441833 -112.661774 9,525 89 297 -1536
2018-07-12 14:56:18 GMT 33.441833 -112.669296 9,650 89 298 -1536
2018-07-12 14:56:10 GMT 33.441742 -112.681549 9,825 89 300 -1408
2018-07-12 14:56:06 GMT 33.441696 -112.687973 9,900 89 302 -1152
2018-07-12 14:55:59 GMT 33.441589 -112.698540 10,000 89 310 -512
2018-07-12 14:55:55 GMT 33.441559 -112.707535 10,025 89 312 -512
2018-07-12 14:55:49 GMT 33.441498 -112.717766 10,075 90 317 -512
2018-07-12 14:55:44 GMT 33.441498 -112.727745 10,125 90 323 -512
2018-07-12 14:55:37 GMT 33.441498 -112.738838 10,175 89 327 -448
2018-07-12 14:55:31 GMT 33.441498 -112.747925 10,225 89 333 -576
2018-07-12 14:55:27 GMT 33.441452 -112.757339 10,300 89 337 -1024
2018-07-12 14:55:21 GMT 33.441452 -112.768944 10,450 89 339 -1984
2018-07-12 14:55:15 GMT 33.441422 -112.777512 10,625 90 340 -2048
2018-07-12 14:55:09 GMT 33.441422 -112.791245 10,875 90 341 -2048
2018-07-12 14:55:04 GMT 33.441422 -112.798607 11,000 90 341 -2048
2018-07-12 14:54:59 GMT 33.441422 -112.814262 11,275 89 343 -2048
2018-07-12 14:54:54 GMT 33.441406 -112.829643 11,550 90 344 -2048
2018-07-12 14:54:43 GMT 33.441376 -112.839310 11,725 89 345 -2048
2018-07-12 14:54:34 GMT 33.441360 -112.858009 12,050 89 347 -2048
2018-07-12 14:54:31 GMT 33.441311 -112.860924 12,100 89 347 -2048
2018-07-12 14:54:20 GMT 33.441311 -112.883400 12,525 90 349 -2112
2018-07-12 14:54:10 GMT 33.441284 -112.904465 12,925 90 351 -2048
2018-07-12 14:54:07 GMT 33.441311 -112.908737 12,975 90 351 -2112
2018-07-12 14:54:01 GMT 33.441330 -112.920998 13,200 90 353 -2048
2018-07-12 14:53:58 GMT 33.441311 -112.927231 13,300 90 354 -2048
2018-07-12 14:53:55 GMT 33.441311 -112.934074 13,425 89 354 -2048
2018-07-12 14:53:47 GMT 33.441265 -112.948982 13,700 89 356 -2112
2018-07-12 14:53:42 GMT 33.441284 -112.956429 13,825 89 357 -2112
2018-07-12 14:53:36 GMT 33.441193 -112.970871 14,075 89 358 -2112
2018-07-12 14:53:31 GMT 33.441174 -112.979584 14,225 89 359 -2176
2018-07-12 14:53:24 GMT 33.441147 -112.992905 14,475 89 361 -2176
2018-07-12 14:53:18 GMT 33.441078 -113.006271 14,725 89 362 -2176
2018-07-12 14:53:13 GMT 33.441078 -113.016693 14,900 89 363 -2112
2018-07-12 14:53:06 GMT 33.441032 -113.028351 15,100 89 365 -2112
2018-07-12 14:53:00 GMT 33.441032 -113.040688 15,325 89 366 -2176
2018-07-12 14:52:55 GMT 33.441032 -113.049988 15,675 89 369 -2176
2018-07-12 14:52:51 GMT 33.441010 -113.060356 15,675 89 369 -2176
2018-07-12 14:52:48 GMT 33.441010 -113.067444 15,800 89 369 -2176
2018-07-12 14:52:42 GMT 33.440987 -113.076447 15,950 89 370 -2176
2018-07-12 14:52:39 GMT 33.440964 -113.083374 16,075 89 371 -2176
2018-07-12 14:52:36 GMT 33.440964 -113.094467 16,275 89 373 -2176
2018-07-12 14:52:33 GMT 33.440918 -113.097382 16,325 89 373 -2176
2018-07-12 14:52:29 GMT 33.440891 -113.106827 16,500 89 374 -2176
2018-07-12 14:52:21 GMT 33.440845 -113.122574 16,775 89 376 -2176
2018-07-12 14:52:17 GMT 33.440826 -113.129189 16,900 89 376 -2176
2018-07-12 14:52:11 GMT 33.440754 -113.142532 17,175 89 378 -2176
2018-07-12 14:52:08 GMT 33.440735 -113.147537 17,200 89 378 -2176
2018-07-12 14:52:05 GMT 33.440708 -113.152733 17,300 89 378 -2176
2018-07-12 14:51:58 GMT 33.440567 -113.169662 17,600 89 379 -2240
2018-07-12 14:51:54 GMT 33.440521 -113.176163 17,700 89 380 -2176
2018-07-12 14:51:48 GMT 33.440475 -113.189842 17,950 89 381 -2176
2018-07-12 14:51:44 GMT 33.440414 -113.200600 18,125 89 382 -2176
2018-07-12 14:51:37 GMT 33.440380 -113.215569 18,400 89 383 -2176
2018-07-12 14:51:32 GMT 33.440334 -113.224258 18,550 89 385 -2176
2018-07-12 14:51:25 GMT 33.440289 -113.240234 18,800 89 386 -2176
2018-07-12 14:51:20 GMT 33.440243 -113.249428 18,975 89 387 -2176
2018-07-12 14:51:13 GMT 33.440231 -113.262894 19,200 89 389 -2240
2018-07-12 14:51:08 GMT 33.440186 -113.276680 19,425 89 390 -2240
2018-07-12 14:51:03 GMT 33.440094 -113.289589 19,650 89 391 -2240
2018-07-12 14:50:57 GMT 33.440048 -113.300407 19,850 89 393 -2240
2018-07-12 14:50:48 GMT 33.439915 -113.319550 20,175 89 395 -2176
2018-07-12 14:50:44 GMT 33.439819 -113.328262 20,325 89 395 -2176
2018-07-12 14:50:33 GMT 33.439682 -113.353035 20,725 89 398 -2240
2018-07-12 14:50:30 GMT 33.439636 -113.362045 20,900 89 399 -2240
2018-07-12 14:50:23 GMT 33.439590 -113.373466 21,075 89 400 -2240
2018-07-12 14:50:20 GMT 33.439545 -113.380142 21,200 89 401 -2304
2018-07-12 14:50:13 GMT 33.439449 -113.396957 21,500 89 402 -2240
2018-07-12 14:50:09 GMT 33.439449 -113.404747 21,625 89 403 -2240
2018-07-12 14:50:06 GMT 33.439407 -113.412308 21,750 89 404 -2240
2018-07-12 14:50:03 GMT 33.439358 -113.419037 21,875 89 404 -2240
2018-07-12 14:49:58 GMT 33.439308 -113.429298 22,050 89 405 -2240
2018-07-12 14:49:54 GMT 33.439270 -113.438232 22,200 89 406 -2240
2018-07-12 14:49:51 GMT 33.439270 -113.443832 22,300 89 406 -2240
2018-07-12 14:49:46 GMT 33.439217 -113.455978 22,500 89 408 -2240
2018-07-12 14:49:41 GMT 33.439125 -113.468590 22,700 89 409 -2240
2018-07-12 14:49:34 GMT 33.439087 -113.481461 23,125 89 411 -2240
2018-07-12 14:49:29 GMT 33.438995 -113.495087 23,150 89 411 -2304
2018-07-12 14:49:21 GMT 33.438858 -113.514641 23,500 89 413 -2368
2018-07-12 14:49:13 GMT 33.438751 -113.532715 23,800 89 414 -2304
2018-07-12 14:49:01 GMT 33.438614 -113.559677 24,250 89 414 -2432
2018-07-12 14:48:55 GMT 33.438519 -113.572510 24,475 89 415 -2496
2018-07-12 14:48:49 GMT 33.438400 -113.587425 24,725 89 416 -2304
2018-07-12 14:48:40 GMT 33.438263 -113.606766 24,950 89 419 -768
2018-07-12 14:48:36 GMT 33.438148 -113.616287 24,975 89 418 -256
2018-07-12 14:48:29 GMT 33.438034 -113.632690 24,975 89 419 64
2018-07-12 14:48:24 GMT 33.437916 -113.645157 24,975 89 419 64
2018-07-12 14:48:18 GMT 33.437805 -113.659714 24,975 89 419 0
2018-07-12 14:48:12 GMT 33.437729 -113.670158 24,975 89 419 0
2018-07-12 14:48:06 GMT 33.437588 -113.686859 24,975 89 420 0
2018-07-12 14:48:00 GMT 33.437496 -113.697289 24,975 89 420 0
2018-07-12 14:47:54 GMT 33.437355 -113.715111 24,975 89 420 0
2018-07-12 14:47:50 GMT 33.437302 -113.723930 24,975 89 420 0
2018-07-12 14:47:44 GMT 33.437210 -113.735794 24,975 89 419 0
2018-07-12 14:47:38 GMT 33.437073 -113.751511 24,975 89 419 0
2018-07-12 14:47:34 GMT 33.437027 -113.760788 24,975 89 418 0
2018-07-12 14:47:28 GMT 33.436890 -113.774414 24,975 89 418 0
2018-07-12 14:47:25 GMT 33.436844 -113.781143 24,975 89 418 0
2018-07-12 14:47:22 GMT 33.436798 -113.787811 24,975 89 417 0
2018-07-12 14:47:13 GMT 33.436657 -113.805748 24,975 89 416 64
2018-07-12 14:47:10 GMT 33.436615 -113.815887 24,975 89 416 64
2018-07-12 14:47:02 GMT 33.436432 -113.832420 24,975 89 414 -64
2018-07-12 14:46:59 GMT 33.436386 -113.839508 24,975 89 413 0
2018-07-12 14:46:55 GMT 33.436295 -113.847969 24,975 89 413 0
2018-07-12 14:46:51 GMT 33.436157 -113.859833 24,975 89 413 0
2018-07-12 14:46:48 GMT 33.436111 -113.864609 24,975 89 413 0
2018-07-12 14:46:42 GMT 33.435959 -113.880798 24,975 89 413 0
2018-07-12 14:46:38 GMT 33.435883 -113.886307 24,975 89 413 -64
2018-07-12 14:46:35 GMT 33.435791 -113.895645 24,975 89 413 0
2018-07-12 14:46:25 GMT 33.435883 -113.918228 24,975 92 414 -64
2018-07-12 14:46:18 GMT 33.436707 -113.935638 24,975 95 416 -64
2018-07-12 14:46:15 GMT 33.437168 -113.941566 24,975 98 417 -64
2018-07-12 14:46:04 GMT 33.440147 -113.966843 24,975 101 417 -64
2018-07-12 14:45:51 GMT 33.445129 -113.993645 24,975 103 418 0
2018-07-12 14:45:41 GMT 33.449970 -114.018021 24,975 103 421 0
2018-07-12 14:45:28 GMT 33.455383 -114.045120 24,950 103 434 64
2018-07-12 14:45:25 GMT 33.457489 -114.055664 24,950 103 434 64
2018-07-12 14:45:15 GMT 33.462261 -114.079399 24,950 103 436 128
2018-07-12 14:45:08 GMT 33.464996 -114.093292 24,950 103 442 64
2018-07-12 14:45:03 GMT 33.467381 -114.105179 24,950 103 446 -64
2018-07-12 14:44:55 GMT 33.471573 -114.126091 25,025 103 451 -1024
2018-07-12 14:44:49 GMT 33.474976 -114.143333 25,175 103 452 -1472
2018-07-12 14:44:43 GMT 33.477173 -114.154320 25,350 103 455 -2304
2018-07-12 14:44:38 GMT 33.479507 -114.166023 25,550 103 456 -2944
2018-07-12 14:44:34 GMT 33.481812 -114.177826 25,800 103 457 -3008
2018-07-12 14:44:28 GMT 33.485397 -114.195816 26,125 103 460 -2816
2018-07-12 14:44:23 GMT 33.487213 -114.204956 26,300 103 460 -2816
2018-07-12 14:44:18 GMT 33.488888 -114.213646 26,475 103 461 -2816
2018-07-12 14:44:15 GMT 33.490997 -114.224358 26,675 103 464 -2880
2018-07-12 14:44:12 GMT 33.492378 -114.231300 26,825 103 463 -2880
2018-07-12 14:44:07 GMT 33.494385 -114.241280 27,000 103 464 -2880
2018-07-12 14:44:02 GMT 33.497314 -114.256271 27,300 103 466 -2816
2018-07-12 14:43:55 GMT 33.500805 -114.274124 27,650 103 468 -2816
2018-07-12 14:43:49 GMT 33.504204 -114.291275 27,975 103 470 -2944
2018-07-12 14:43:43 GMT 33.506298 -114.301926 28,175 103 471 -2944
2018-07-12 14:43:37 GMT 33.509949 -114.320488 28,550 103 473 -2944
2018-07-12 14:43:30 GMT 33.512833 -114.335266 28,825 103 474 -2944
2018-07-12 14:43:25 GMT 33.515099 -114.347046 29,050 103 475 -2944
2018-07-12 14:43:21 GMT 33.517868 -114.361137 29,325 103 477 -2944
2018-07-12 14:43:07 GMT 33.527023 -114.407608 30,175 103 483 -2816
2018-07-12 14:42:57 GMT 33.530132 -114.423508 30,450 103 484 -2560
2018-07-12 14:42:51 GMT 33.532833 -114.437126 30,650 103 485 -2240
2018-07-12 14:42:44 GMT 33.536545 -114.456169 30,875 103 485 -1536
2018-07-12 14:42:40 GMT 33.538979 -114.468460 30,950 103 485 -896
2018-07-12 14:42:33 GMT 33.542633 -114.487068 31,000 103 486 0
2018-07-12 14:42:28 GMT 33.544659 -114.497566 31,000 103 486 0
2018-07-12 14:42:20 GMT 33.548382 -114.516396 31,000 103 485 0
2018-07-12 14:42:17 GMT 33.549911 -114.524284 31,000 103 485 0
2018-07-12 14:42:13 GMT 33.552433 -114.537109 31,000 103 485 0
2018-07-12 14:42:07 GMT 33.555634 -114.553604 31,000 103 485 0
2018-07-12 14:42:02 GMT 33.557831 -114.564873 31,000 103 485 0
2018-07-12 14:41:58 GMT 33.560299 -114.577393 31,000 103 485 0
2018-07-12 14:41:53 GMT 33.562160 -114.586830 31,000 103 485 0
2018-07-12 14:41:46 GMT 33.566723 -114.610123 31,000 103 485 0
2018-07-12 14:41:41 GMT 33.568726 -114.620300 31,000 103 484 0
2018-07-12 14:41:35 GMT 33.572311 -114.638618 31,000 103 484 0
2018-07-12 14:41:31 GMT 33.573853 -114.646423 31,000 103 484 0
2018-07-12 14:41:24 GMT 33.577942 -114.667336 31,000 103 484 0
2018-07-12 14:41:21 GMT 33.579014 -114.672829 31,000 103 484 0
2018-07-12 14:41:13 GMT 33.583099 -114.693680 31,000 103 484 0
2018-07-12 14:41:09 GMT 33.584656 -114.701523 31,000 103 484 0
2018-07-12 14:41:02 GMT 33.588417 -114.720840 31,000 103 484 0
2018-07-12 14:40:59 GMT 33.590092 -114.729424 31,000 103 484 0
2018-07-12 14:40:48 GMT 33.596008 -114.758865 31,000 105 484 0
2018-07-12 14:40:40 GMT 33.601181 -114.779884 31,000 107 482 0
2018-07-12 14:40:32 GMT 33.607037 -114.801804 31,000 107 482 0
2018-07-12 14:40:29 GMT 33.608826 -114.808418 31,000 107 482 0
2018-07-12 14:40:25 GMT 33.611134 -114.817085 31,000 107 482 0
2018-07-12 14:40:17 GMT 33.617279 -114.840263 31,000 107 482 64
2018-07-12 14:40:14 GMT 33.618488 -114.844833 31,000 107 482 0
2018-07-12 14:40:05 GMT 33.625305 -114.870522 31,000 107 482 0
2018-07-12 14:40:02 GMT 33.626312 -114.874367 31,000 107 481 0
2018-07-12 14:39:55 GMT 33.631439 -114.893677 31,000 107 481 0
2018-07-12 14:39:52 GMT 33.633850 -114.902802 31,000 107 481 0
2018-07-12 14:39:41 GMT 33.640503 -114.927757 31,000 107 481 0
2018-07-12 14:39:36 GMT 33.644440 -114.942436 31,000 107 481 0
2018-07-12 14:39:33 GMT 33.647095 -114.952362 31,000 107 481 0
2018-07-12 14:39:30 GMT 33.648743 -114.958748 31,000 107 481 0
2018-07-12 14:39:25 GMT 33.651867 -114.970383 31,000 107 481 0
2018-07-12 14:39:21 GMT 33.654243 -114.979301 31,000 107 480 0
2018-07-12 14:39:18 GMT 33.656250 -114.986893 31,000 107 481 0
2018-07-12 14:39:12 GMT 33.660805 -115.003906 31,000 107 481 0
2018-07-12 14:39:08 GMT 33.662842 -115.011497 31,000 107 481 0
2018-07-12 14:39:01 GMT 33.668152 -115.031281 31,000 107 481 0
2018-07-12 14:38:55 GMT 33.672256 -115.046768 31,000 107 480 0
2018-07-12 14:38:42 GMT 33.681747 -115.082291 31,000 107 481 0
2018-07-12 14:38:31 GMT 33.688202 -115.106453 31,000 107 481 0
2018-07-12 14:38:23 GMT 33.693111 -115.124992 31,000 107 481 -64
2018-07-12 14:38:20 GMT 33.695389 -115.133636 31,000 107 481 0
2018-07-12 14:38:17 GMT 33.698318 -115.144569 31,000 107 481 0
2018-07-12 14:38:12 GMT 33.700981 -115.154739 31,000 107 481 0
2018-07-12 14:38:09 GMT 33.703449 -115.163895 31,000 107 481 0
2018-07-12 14:37:59 GMT 33.709579 -115.187057 31,000 107 481 0
2018-07-12 14:37:55 GMT 33.713058 -115.200279 31,000 107 482 0
2018-07-12 14:37:49 GMT 33.716434 -115.212997 31,000 107 483 64
2018-07-12 14:37:45 GMT 33.719742 -115.225510 31,000 107 483 64
2018-07-12 14:37:37 GMT 33.725094 -115.245667 31,000 107 483 64
2018-07-12 14:37:33 GMT 33.728214 -115.257401 31,000 107 483 64
2018-07-12 14:37:28 GMT 33.731659 -115.270447 30,975 107 484 64
2018-07-12 14:37:21 GMT 33.735756 -115.285774 30,975 107 484 64
2018-07-12 14:37:17 GMT 33.739059 -115.298309 30,975 107 484 64
2018-07-12 14:37:05 GMT 33.746384 -115.325951 31,325 107 482 -960
2018-07-12 14:36:58 GMT 33.751831 -115.346695 31,300 107 482 -960
2018-07-12 14:36:54 GMT 33.753708 -115.353867 31,325 107 482 -960
2018-07-12 14:36:47 GMT 33.758705 -115.372749 31,325 107 482 -960
2018-07-12 14:36:44 GMT 33.761078 -115.381683 31,500 107 477 -1024
2018-07-12 14:36:35 GMT 33.766800 -115.403641 31,500 107 477 -1024
2018-07-12 14:36:32 GMT 33.768173 -115.408684 31,650 107 480 -960
2018-07-12 14:36:24 GMT 33.774254 -115.432037 31,700 107 477 -1024
2018-07-12 14:36:14 GMT 33.780212 -115.454819 31,750 107 476 -960
2018-07-12 14:36:11 GMT 33.782494 -115.463387 31,925 107 476 -960
2018-07-12 14:36:08 GMT 33.784058 -115.469444 31,925 107 476 -960
2018-07-12 14:36:00 GMT 33.790127 -115.492683 32,075 107 476 -960
2018-07-12 14:35:50 GMT 33.797112 -115.519409 32,250 107 475 -960
2018-07-12 14:35:47 GMT 33.798065 -115.523201 32,275 107 475 -960
2018-07-12 14:35:39 GMT 33.803879 -115.545624 32,425 107 475 -960
2018-07-12 14:35:35 GMT 33.806671 -115.556442 32,500 107 475 -960
2018-07-12 14:35:28 GMT 33.811157 -115.573593 32,600 107 475 -960
2018-07-12 14:35:25 GMT 33.813080 -115.581108 32,650 107 475 -960
2018-07-12 14:35:19 GMT 33.817017 -115.596237 32,750 107 474 -960
2018-07-12 14:35:14 GMT 33.820152 -115.608276 32,825 107 474 -960
2018-07-12 14:35:11 GMT 33.821922 -115.615082 32,875 107 474 -960
2018-07-12 14:35:07 GMT 33.824158 -115.623589 32,950 107 472 -960
2018-07-12 14:35:02 GMT 33.828255 -115.639397 33,025 107 473 -960
2018-07-12 14:34:58 GMT 33.830109 -115.646408 33,125 107 472 -960
2018-07-12 14:34:55 GMT 33.832626 -115.656158 33,125 107 472 -960
2018-07-12 14:34:49 GMT 33.835876 -115.668716 33,225 107 472 -960
2018-07-12 14:34:46 GMT 33.838264 -115.677734 33,750 107 473 -960
2018-07-12 14:34:40 GMT 33.842331 -115.693489 33,375 107 472 -960
2018-07-12 14:34:35 GMT 33.845524 -115.705719 33,450 107 472 -960
2018-07-12 14:34:26 GMT 33.851017 -115.726776 33,575 107 473 -960
2018-07-12 14:34:23 GMT 33.853531 -115.736275 33,650 107 473 -960
2018-07-12 14:34:17 GMT 33.857117 -115.750122 33,725 107 473 -960
2018-07-12 14:34:12 GMT 33.860092 -115.761368 33,775 107 471 -960
2018-07-12 14:34:07 GMT 33.864487 -115.778412 33,925 107 472 -960
2018-07-12 14:34:04 GMT 33.865997 -115.784180 34,000 107 471 -960
2018-07-12 14:33:59 GMT 33.868790 -115.794945 34,025 107 471 -960
2018-07-12 14:33:55 GMT 33.871445 -115.805206 34,100 107 471 -960
2018-07-12 14:33:52 GMT 33.873505 -115.813179 34,150 107 470 -960
2018-07-12 14:33:45 GMT 33.878483 -115.832405 34,250 107 470 -960
2018-07-12 14:33:41 GMT 33.880997 -115.842072 34,325 107 470 -960
2018-07-12 14:33:34 GMT 33.885372 -115.859016 34,425 107 470 -960
2018-07-12 14:33:31 GMT 33.887421 -115.866974 34,475 107 470 -960
2018-07-12 14:33:26 GMT 33.890533 -115.878967 34,550 107 470 -960
2018-07-12 14:33:22 GMT 33.893417 -115.890182 34,650 107 471 -960
2018-07-12 14:33:18 GMT 33.895660 -115.898926 34,700 107 471 -960
2018-07-12 14:33:15 GMT 33.897758 -115.906906 34,750 107 470 -960
2018-07-12 14:33:12 GMT 33.899689 -115.914391 34,800 107 470 -960
2018-07-12 14:33:08 GMT 33.901566 -115.921623 34,875 107 469 -960
2018-07-12 14:33:04 GMT 33.905113 -115.935349 34,925 107 469 -960
2018-07-12 14:32:59 GMT 33.908066 -115.946793 35,000 107 469 -960
2018-07-12 14:32:55 GMT 33.909943 -115.953964 35,050 107 468 -960
2018-07-12 14:32:50 GMT 33.913353 -115.967155 35,125 107 468 -960
2018-07-12 14:32:47 GMT 33.915726 -115.976318 35,200 107 468 -960
2018-07-12 14:32:42 GMT 33.918568 -115.987244 35,275 106 471 -960
2018-07-12 14:32:39 GMT 33.920429 -115.994453 35,300 107 467 -960
2018-07-12 14:32:35 GMT 33.923035 -116.004639 35,375 107 467 -960
2018-07-12 14:32:30 GMT 33.925919 -116.015793 35,450 107 468 -960
2018-07-12 14:32:27 GMT 33.927551 -116.022263 35,525 107 468 -960
2018-07-12 14:32:23 GMT 33.930855 -116.034966 35,575 107 469 -960
2018-07-12 14:32:19 GMT 33.933380 -116.044945 35,625 106 469 -896
2018-07-12 14:32:16 GMT 33.934906 -116.050926 35,675 106 470 -896
2018-07-12 14:32:13 GMT 33.937141 -116.059631 35,750 106 470 -960
2018-07-12 14:32:08 GMT 33.940445 -116.072678 35,800 106 470 -960
2018-07-12 14:32:05 GMT 33.942444 -116.080643 35,850 106 471 -960
2018-07-12 14:32:02 GMT 33.944412 -116.088440 35,900 106 471 -960
2018-07-12 14:31:58 GMT 33.946262 -116.095901 36,150 106 470 -960
2018-07-12 14:31:53 GMT 33.950134 -116.111198 36,075 106 470 -960
2018-07-12 14:31:46 GMT 33.954132 -116.126976 36,350 106 469 -960
2018-07-12 14:31:42 GMT 33.956322 -116.135735 36,300 106 469 -960
2018-07-12 14:31:36 GMT 33.960892 -116.153961 36,325 106 469 -960
2018-07-12 14:31:32 GMT 33.962791 -116.161484 36,400 106 469 -960
2018-07-12 14:31:29 GMT 33.965149 -116.171005 36,425 106 469 -960
2018-07-12 14:31:24 GMT 33.968189 -116.183228 36,500 106 469 -960
2018-07-12 14:31:20 GMT 33.969955 -116.190231 36,550 106 469 -960
2018-07-12 14:31:15 GMT 33.973869 -116.205994 36,700 106 469 -960
2018-07-12 14:31:10 GMT 33.976364 -116.215958 36,700 106 469 -960
2018-07-12 14:31:05 GMT 33.979874 -116.230202 36,800 106 469 -960
2018-07-12 14:31:02 GMT 33.982819 -116.241966 36,875 106 468 -960
2018-07-12 14:30:58 GMT 33.983738 -116.245705 36,900 106 468 -960
2018-07-12 14:30:52 GMT 33.987511 -116.260643 37,000 106 469 -960
2018-07-12 14:30:48 GMT 33.990143 -116.271111 37,075 106 469 -960
2018-07-12 14:30:42 GMT 33.994213 -116.287079 37,150 106 469 -960
2018-07-12 14:30:38 GMT 33.997101 -116.298576 37,375 106 469 -960
2018-07-12 14:30:32 GMT 34.000546 -116.312256 37,325 106 467 -960
2018-07-12 14:30:26 GMT 34.004379 -116.327499 37,425 106 467 -960
2018-07-12 14:30:21 GMT 34.007294 -116.339211 37,500 106 467 -960
2018-07-12 14:30:15 GMT 34.012390 -116.359337 37,625 106 466 -960
2018-07-12 14:30:10 GMT 34.014137 -116.366325 37,925 106 466 -960
2018-07-12 14:30:05 GMT 34.017838 -116.380974 37,750 106 467 -960
2018-07-12 14:30:00 GMT 34.021088 -116.393867 37,850 107 466 -960
2018-07-12 14:29:53 GMT 34.025024 -116.409225 37,950 107 465 -960
2018-07-12 14:29:50 GMT 34.027031 -116.417198 38,000 107 465 -960
2018-07-12 14:29:47 GMT 34.028320 -116.422119 38,025 107 465 -960
2018-07-12 14:29:43 GMT 34.031593 -116.434998 38,100 107 465 -960
2018-07-12 14:29:36 GMT 34.037613 -116.458214 38,250 107 465 -960
2018-07-12 14:29:31 GMT 34.039043 -116.463608 38,375 106 463 -1088
2018-07-12 14:29:28 GMT 34.041458 -116.473015 38,350 107 464 -960
2018-07-12 14:29:21 GMT 34.045486 -116.488258 38,450 107 464 -960
2018-07-12 14:29:18 GMT 34.047226 -116.494934 38,525 107 463 -1024
2018-07-12 14:29:15 GMT 34.049194 -116.502556 38,600 106 463 -1088
2018-07-12 14:29:09 GMT 34.052673 -116.515839 38,650 107 463 -1024
2018-07-12 14:29:06 GMT 34.055328 -116.525932 38,725 107 463 -1088
2018-07-12 14:29:03 GMT 34.057297 -116.533554 38,875 106 463 -1088
2018-07-12 14:28:58 GMT 34.059814 -116.543137 38,875 107 463 -1088
2018-07-12 14:28:55 GMT 34.062504 -116.553726 38,925 106 462 -1024
2018-07-12 14:28:47 GMT 34.067047 -116.571724 39,000 106 462 -320
2018-07-12 14:28:44 GMT 34.069199 -116.580299 39,000 106 462 0
2018-07-12 14:28:39 GMT 34.071304 -116.588692 39,000 106 462 0
2018-07-12 14:28:36 GMT 34.073547 -116.597565 39,000 106 461 0
2018-07-12 14:28:33 GMT 34.076294 -116.608383 39,000 106 461 0
2018-07-12 14:28:30 GMT 34.077774 -116.614326 39,000 106 461 0
2018-07-12 14:28:26 GMT 34.080055 -116.623421 39,000 106 461 0
2018-07-12 14:28:23 GMT 34.082153 -116.631760 39,000 106 461 0
2018-07-12 14:28:20 GMT 34.084076 -116.639381 39,000 106 461 0
2018-07-12 14:28:16 GMT 34.086525 -116.649223 39,000 106 461 0
2018-07-12 14:28:13 GMT 34.087971 -116.654892 39,000 106 461 0
2018-07-12 14:28:10 GMT 34.090302 -116.664207 39,000 106 461 0
2018-07-12 14:28:04 GMT 34.094101 -116.679459 39,000 106 461 0
2018-07-12 14:28:00 GMT 34.096252 -116.688034 39,000 106 461 0
2018-07-12 14:27:53 GMT 34.100723 -116.705704 39,000 106 460 0
2018-07-12 14:27:50 GMT 34.102798 -116.714096 39,000 106 460 0
2018-07-12 14:27:47 GMT 34.103611 -116.717262 39,000 106 460 0
2018-07-12 14:27:42 GMT 34.107651 -116.733490 39,000 106 460 0
2018-07-12 14:27:37 GMT 34.109615 -116.741348 39,000 106 460 0
2018-07-12 14:27:31 GMT 34.114410 -116.760521 39,000 106 460 0
2018-07-12 14:27:27 GMT 34.116135 -116.767387 39,000 106 460 0
2018-07-12 14:27:20 GMT 34.120514 -116.785057 39,000 106 460 0
2018-07-12 14:27:17 GMT 34.122940 -116.794647 39,000 106 461 0
2018-07-12 14:27:14 GMT 34.123718 -116.797836 39,000 106 461 0
2018-07-12 14:27:09 GMT 34.127724 -116.814079 39,000 106 460 0
2018-07-12 14:27:04 GMT 34.130127 -116.823624 39,000 106 460 0
2018-07-12 14:27:00 GMT 34.134056 -116.839600 39,000 106 460 0
2018-07-12 14:26:57 GMT 34.134842 -116.842796 39,000 106 460 0
2018-07-12 14:26:54 GMT 34.136856 -116.850922 39,000 106 460 0
2018-07-12 14:26:48 GMT 34.140289 -116.864655 39,000 106 460 0
2018-07-12 14:26:44 GMT 34.142807 -116.874969 39,000 106 460 0
2018-07-12 14:26:39 GMT 34.145325 -116.885002 39,000 106 460 0
2018-07-12 14:26:36 GMT 34.147339 -116.893127 39,000 106 460 0
2018-07-12 14:26:33 GMT 34.149281 -116.900993 39,000 106 460 0
2018-07-12 14:26:30 GMT 34.151562 -116.910324 39,000 106 460 0
2018-07-12 14:26:26 GMT 34.154678 -116.922852 39,000 106 460 0
2018-07-12 14:26:22 GMT 34.156265 -116.929230 39,000 106 460 0
2018-07-12 14:26:18 GMT 34.158821 -116.939507 39,000 106 460 0
2018-07-12 14:26:15 GMT 34.160358 -116.945625 39,000 106 460 0
2018-07-12 14:26:11 GMT 34.162537 -116.954506 39,000 106 460 0
2018-07-12 14:26:07 GMT 34.166317 -116.969719 39,000 106 460 0
2018-07-12 14:26:03 GMT 34.167526 -116.974640 39,000 106 460 0
2018-07-12 14:26:00 GMT 34.169128 -116.981018 39,000 106 460 0
2018-07-12 14:25:57 GMT 34.170639 -116.987129 39,000 106 460 0
2018-07-12 14:25:54 GMT 34.173294 -116.997948 39,000 106 460 0
2018-07-12 14:25:49 GMT 34.176327 -117.010178 39,000 106 460 0
2018-07-12 14:25:44 GMT 34.179352 -117.022476 39,000 106 459 0
2018-07-12 14:25:40 GMT 34.181355 -117.030540 39,000 106 459 0
2018-07-12 14:25:37 GMT 34.183914 -117.040848 39,000 106 459 0
2018-07-12 14:25:32 GMT 34.186844 -117.052597 39,000 106 459 0
2018-07-12 14:25:28 GMT 34.189129 -117.061958 39,000 106 459 0
2018-07-12 14:25:25 GMT 34.190460 -117.067345 39,000 106 459 0
2018-07-12 14:25:21 GMT 34.193207 -117.078384 39,000 106 459 0
2018-07-12 14:25:17 GMT 34.195923 -117.089424 39,000 106 459 0
2018-07-12 14:25:12 GMT 34.198997 -117.101898 39,000 106 459 0
2018-07-12 14:25:07 GMT 34.201492 -117.111961 39,000 106 459 0
2018-07-12 14:25:04 GMT 34.203369 -117.119583 39,000 106 459 0
2018-07-12 14:25:01 GMT 34.205429 -117.127876 39,000 106 459 0
2018-07-12 14:24:58 GMT 34.207420 -117.136002 39,000 106 459 0
2018-07-12 14:24:55 GMT 34.208633 -117.140862 39,000 106 458 0
2018-07-12 14:24:52 GMT 34.210728 -117.149445 39,000 106 458 0
2018-07-12 14:24:49 GMT 34.212730 -117.157578 39,000 106 458 0
2018-07-12 14:24:46 GMT 34.213943 -117.162460 39,000 106 458 0
2018-07-12 14:24:42 GMT 34.217056 -117.175240 39,000 106 458 0
2018-07-12 14:24:39 GMT 34.218876 -117.182579 39,000 106 458 0
2018-07-12 14:24:36 GMT 34.220673 -117.189926 39,000 106 458 0
2018-07-12 14:24:32 GMT 34.223064 -117.199745 39,000 106 458 0
2018-07-12 14:24:28 GMT 34.225204 -117.208534 39,000 106 458 0
2018-07-12 14:24:25 GMT 34.226929 -117.215424 39,000 106 457 0
2018-07-12 14:24:22 GMT 34.229141 -117.224457 39,000 106 457 0
2018-07-12 14:24:18 GMT 34.232437 -117.237907 39,000 106 457 0
2018-07-12 14:24:14 GMT 34.233631 -117.242828 39,000 106 457 0
2018-07-12 14:24:11 GMT 34.235355 -117.249931 39,000 106 457 0
2018-07-12 14:24:08 GMT 34.236557 -117.254837 39,000 106 457 0
2018-07-12 14:24:04 GMT 34.239731 -117.267776 39,000 106 457 0
2018-07-12 14:23:59 GMT 34.242661 -117.279800 39,000 106 457 0
2018-07-12 14:23:56 GMT 34.243835 -117.284660 39,000 106 457 0
2018-07-12 14:23:53 GMT 34.245941 -117.293236 39,000 106 457 0
2018-07-12 14:23:50 GMT 34.247971 -117.301537 39,000 106 457 0
2018-07-12 14:23:46 GMT 34.250065 -117.310120 39,000 106 457 0
2018-07-12 14:23:41 GMT 34.252899 -117.321594 39,000 106 457 0
2018-07-12 14:23:38 GMT 34.254581 -117.328438 39,000 106 457 0
2018-07-12 14:23:35 GMT 34.256676 -117.337013 39,000 106 457 0
2018-07-12 14:23:32 GMT 34.258667 -117.345306 39,000 106 457 0
2018-07-12 14:23:28 GMT 34.261189 -117.355614 39,000 106 456 0
2018-07-12 14:23:24 GMT 34.263336 -117.364365 39,000 106 456 0
2018-07-12 14:23:20 GMT 34.265854 -117.374680 39,000 106 456 0
2018-07-12 14:23:16 GMT 34.268509 -117.385666 39,000 106 456 0
2018-07-12 14:23:13 GMT 34.269711 -117.390518 39,000 106 456 0
2018-07-12 14:23:10 GMT 34.271942 -117.399849 39,000 106 456 0
2018-07-12 14:23:06 GMT 34.273911 -117.407860 39,000 106 456 0
2018-07-12 14:23:03 GMT 34.276180 -117.417130 39,000 106 456 0
2018-07-12 14:22:58 GMT 34.279312 -117.430061 39,000 106 456 0
2018-07-12 14:22:55 GMT 34.280548 -117.435219 39,000 106 455 0
2018-07-12 14:22:51 GMT 34.282463 -117.442986 39,000 106 455 0
2018-07-12 14:22:48 GMT 34.284851 -117.452759 39,000 106 455 0
2018-07-12 14:22:44 GMT 34.286911 -117.461281 39,000 106 455 64
2018-07-12 14:22:41 GMT 34.288563 -117.468109 39,000 106 455 0
2018-07-12 14:22:37 GMT 34.291077 -117.478378 39,000 106 455 0
2018-07-12 14:22:34 GMT 34.293365 -117.487846 39,000 106 455 0
2018-07-12 14:22:31 GMT 34.294968 -117.494408 39,000 106 455 0
2018-07-12 14:22:27 GMT 34.298012 -117.507072 39,000 106 455 0
2018-07-12 14:22:24 GMT 34.298897 -117.510735 39,000 106 455 0
2018-07-12 14:22:21 GMT 34.300758 -117.518288 39,000 106 454 0
2018-07-12 14:22:17 GMT 34.302807 -117.526817 39,000 106 454 0
2018-07-12 14:22:14 GMT 34.305695 -117.538719 39,000 106 454 0
2018-07-12 14:22:10 GMT 34.307556 -117.546501 39,000 106 454 0
2018-07-12 14:22:07 GMT 34.309341 -117.553825 39,000 106 454 0
2018-07-12 14:22:04 GMT 34.311630 -117.563293 39,000 106 454 0
2018-07-12 14:22:01 GMT 34.312908 -117.568642 39,000 106 454 0
2018-07-12 14:21:58 GMT 34.314072 -117.573509 39,000 106 454 0
2018-07-12 14:21:54 GMT 34.316494 -117.583466 39,000 106 453 0
2018-07-12 14:21:51 GMT 34.318451 -117.591713 39,000 106 453 0
2018-07-12 14:21:48 GMT 34.319893 -117.597542 39,000 106 453 0
2018-07-12 14:21:45 GMT 34.321747 -117.605331 39,000 106 452 0
2018-07-12 14:21:42 GMT 34.323662 -117.613335 39,000 106 452 0
2018-07-12 14:21:38 GMT 34.325386 -117.620377 39,000 106 452 0
2018-07-12 14:21:35 GMT 34.327835 -117.630562 39,000 106 451 0
2018-07-12 14:21:32 GMT 34.329300 -117.636612 39,000 106 451 0
2018-07-12 14:21:29 GMT 34.331577 -117.646065 39,000 106 451 0
2018-07-12 14:21:26 GMT 34.332687 -117.650681 39,000 106 451 0
2018-07-12 14:21:23 GMT 34.334381 -117.657692 39,000 106 451 0
2018-07-12 14:21:20 GMT 34.336533 -117.666656 39,000 106 451 0
2018-07-12 14:21:17 GMT 34.338421 -117.674393 39,000 106 451 0
2018-07-12 14:21:14 GMT 34.339352 -117.678284 39,000 106 449 0
2018-07-12 14:21:10 GMT 34.342007 -117.689438 39,000 106 451 0
2018-07-12 14:21:06 GMT 34.344910 -117.701523 39,000 106 451 0
2018-07-12 14:21:03 GMT 34.346603 -117.708527 39,000 106 451 0
2018-07-12 14:20:57 GMT 34.350151 -117.723312 39,000 106 451 0
2018-07-12 14:20:54 GMT 34.351597 -117.729378 39,000 106 450 0
2018-07-12 14:20:51 GMT 34.352757 -117.734184 39,000 106 450 0
2018-07-12 14:20:43 GMT 34.357452 -117.753990 39,000 106 450 0
2018-07-12 14:20:40 GMT 34.360062 -117.764862 39,000 106 449 0
2018-07-12 14:20:33 GMT 34.364044 -117.781509 39,000 106 449 0
2018-07-12 14:20:30 GMT 34.365513 -117.787575 39,000 106 449 0
2018-07-12 14:20:27 GMT 34.367340 -117.795242 39,000 106 449 0
2018-07-12 14:20:21 GMT 34.370773 -117.809486 39,000 106 449 0
2018-07-12 14:20:18 GMT 34.372284 -117.815758 39,000 106 449 0
2018-07-12 14:20:13 GMT 34.375336 -117.828545 39,000 106 448 0
2018-07-12 14:20:10 GMT 34.376778 -117.834549 39,000 106 448 0
2018-07-12 14:20:07 GMT 34.378689 -117.842506 39,000 106 449 0
2018-07-12 14:20:04 GMT 34.380341 -117.849220 39,000 106 449 0
2018-07-12 14:20:01 GMT 34.382320 -117.857437 39,000 106 449 0
2018-07-12 14:19:58 GMT 34.383820 -117.863686 39,000 106 449 0
2018-07-12 14:19:55 GMT 34.386135 -117.873283 39,000 106 449 0
2018-07-12 14:19:51 GMT 34.387894 -117.880501 39,000 106 449 0
2018-07-12 14:19:47 GMT 34.390274 -117.890366 39,000 106 449 0
2018-07-12 14:19:43 GMT 34.392143 -117.898064 39,000 106 449 0
2018-07-12 14:19:40 GMT 34.393955 -117.905502 39,000 106 449 0
2018-07-12 14:19:37 GMT 34.395775 -117.912994 39,000 106 449 0
2018-07-12 14:19:34 GMT 34.397827 -117.921417 39,000 106 449 0
2018-07-12 14:19:30 GMT 34.400475 -117.932449 39,000 106 449 64
2018-07-12 14:19:27 GMT 34.402523 -117.940865 39,000 106 449 0
2018-07-12 14:19:23 GMT 34.404572 -117.949280 39,000 106 448 0
2018-07-12 14:19:19 GMT 34.406845 -117.958916 39,000 105 448 -64
2018-07-12 14:19:16 GMT 34.408401 -117.965416 39,000 106 448 -64
2018-07-12 14:19:13 GMT 34.410278 -117.973099 39,000 107 448 -64
2018-07-12 14:19:09 GMT 34.412750 -117.982346 39,000 112 445 -64
2018-07-12 14:19:06 GMT 34.414673 -117.988960 39,000 112 445 -64
2018-07-12 14:19:03 GMT 34.417099 -117.996361 39,000 113 446 -64
2018-07-12 14:19:00 GMT 34.419937 -118.004372 39,000 115 445 0
2018-07-12 14:18:57 GMT 34.422119 -118.009987 39,000 117 444 0
2018-07-12 14:18:54 GMT 34.424355 -118.015594 39,000 118 443 0
2018-07-12 14:18:50 GMT 34.428040 -118.023880 39,000 120 442 0
2018-07-12 14:18:47 GMT 34.431805 -118.031845 39,000 122 442 0
2018-07-12 14:18:44 GMT 34.435390 -118.038773 39,000 124 441 0
2018-07-12 14:18:41 GMT 34.438660 -118.044731 39,000 125 441 0
2018-07-12 14:18:37 GMT 34.443878 -118.053535 39,000 128 440 0
2018-07-12 14:18:33 GMT 34.447632 -118.059364 39,000 130 440 64
2018-07-12 14:18:27 GMT 34.459259 -118.075562 39,000 131 440 64
2018-07-12 14:18:23 GMT 34.461971 -118.079224 39,000 131 440 64
2018-07-12 14:18:20 GMT 34.465210 -118.083633 39,000 131 440 64
2018-07-12 14:18:17 GMT 34.469837 -118.089806 39,000 131 440 0
2018-07-12 14:18:14 GMT 34.473793 -118.095131 39,000 131 440 0
2018-07-12 14:18:11 GMT 34.477615 -118.100281 39,000 131 440 0
2018-07-12 14:18:08 GMT 34.481827 -118.105942 39,000 131 440 0
2018-07-12 14:18:05 GMT 34.486038 -118.111656 39,000 131 440 0
2018-07-12 14:18:01 GMT 34.491577 -118.119171 39,000 131 440 0
2018-07-12 14:17:57 GMT 34.497723 -118.127403 39,000 131 440 -64
2018-07-12 14:17:53 GMT 34.503159 -118.134750 39,000 131 440 -64
2018-07-12 14:17:50 GMT 34.506271 -118.138954 39,000 131 440 0
2018-07-12 14:17:47 GMT 34.511307 -118.145737 39,000 131 439 0
2018-07-12 14:17:44 GMT 34.513458 -118.148712 39,000 131 440 0
2018-07-12 14:17:41 GMT 34.518482 -118.155502 39,000 131 440 0
2018-07-12 14:17:38 GMT 34.523392 -118.162109 39,000 131 439 0
2018-07-12 14:17:35 GMT 34.525978 -118.165565 39,000 131 439 0
2018-07-12 14:17:32 GMT 34.530304 -118.171410 39,000 131 439 0
2018-07-12 14:17:28 GMT 34.536266 -118.179474 39,000 131 439 0
2018-07-12 14:17:25 GMT 34.541016 -118.185928 39,000 131 439 0
2018-07-12 14:17:22 GMT 34.545227 -118.191589 39,000 131 439 0
2018-07-12 14:17:18 GMT 34.550373 -118.198586 39,000 131 439 0
2018-07-12 14:17:15 GMT 34.554329 -118.203903 39,000 131 439 0
2018-07-12 14:17:12 GMT 34.556473 -118.206825 39,000 131 439 0
2018-07-12 14:17:09 GMT 34.560562 -118.212334 39,000 131 439 0
2018-07-12 14:17:06 GMT 34.566525 -118.220390 39,000 131 439 0
2018-07-12 14:17:03 GMT 34.569489 -118.224434 39,000 131 439 0
2018-07-12 14:16:59 GMT 34.574524 -118.231216 39,000 131 440 0
2018-07-12 14:16:56 GMT 34.579788 -118.238396 39,000 131 439 0
2018-07-12 14:16:53 GMT 34.584122 -118.244247 39,000 131 439 0
2018-07-12 14:16:49 GMT 34.588451 -118.250137 39,000 131 439 0
2018-07-12 14:16:46 GMT 34.593758 -118.257294 39,000 131 439 0
2018-07-12 14:16:42 GMT 34.599152 -118.264626 39,000 131 439 0
2018-07-12 14:16:39 GMT 34.602695 -118.269424 39,000 131 440 0
2018-07-12 14:16:35 GMT 34.608238 -118.276978 39,000 131 440 0
2018-07-12 14:16:32 GMT 34.611916 -118.281898 39,000 131 440 0
2018-07-12 14:16:28 GMT 34.618294 -118.290596 39,000 131 440 0
2018-07-12 14:16:24 GMT 34.623413 -118.297585 39,000 131 440 0
2018-07-12 14:16:21 GMT 34.627350 -118.302910 39,000 131 440 0
2018-07-12 14:16:17 GMT 34.633190 -118.310852 39,000 131 440 -64
2018-07-12 14:16:13 GMT 34.637238 -118.316345 39,000 131 440 0
2018-07-12 14:16:10 GMT 34.642410 -118.323372 39,000 131 441 0
2018-07-12 14:16:07 GMT 34.648224 -118.331337 39,000 131 441 0
2018-07-12 14:16:03 GMT 34.652023 -118.336487 39,000 131 441 0
2018-07-12 14:16:00 GMT 34.655411 -118.341080 39,000 131 441 64
2018-07-12 14:15:57 GMT 34.659492 -118.346619 39,000 131 441 0
2018-07-12 14:15:54 GMT 34.663971 -118.352745 39,000 131 441 0
2018-07-12 14:15:51 GMT 34.668056 -118.358292 39,000 131 441 0
2018-07-12 14:15:47 GMT 34.673595 -118.365898 39,000 131 441 0
2018-07-12 14:15:43 GMT 34.679043 -118.373283 39,000 131 442 0
2018-07-12 14:15:40 GMT 34.682953 -118.378654 39,000 131 442 0
2018-07-12 14:15:37 GMT 34.686218 -118.383064 39,000 131 442 0
2018-07-12 14:15:34 GMT 34.689880 -118.388107 39,000 131 442 0
2018-07-12 14:15:30 GMT 34.696686 -118.397369 39,000 131 442 0
2018-07-12 14:15:27 GMT 34.700775 -118.402962 39,000 131 442 0
2018-07-12 14:15:23 GMT 34.704273 -118.407784 39,000 131 442 0
2018-07-12 14:15:19 GMT 34.712311 -118.418770 39,000 131 443 0
2018-07-12 14:15:16 GMT 34.715542 -118.423233 39,000 131 443 0
2018-07-12 14:15:13 GMT 34.719498 -118.428612 39,000 131 443 0
2018-07-12 14:15:10 GMT 34.724121 -118.434914 39,000 131 443 0
2018-07-12 14:15:07 GMT 34.727371 -118.439400 39,000 131 443 0
2018-07-12 14:15:03 GMT 34.732269 -118.446129 39,000 131 443 0
2018-07-12 14:15:00 GMT 34.735649 -118.450752 39,000 131 443 0
2018-07-12 14:14:57 GMT 34.741516 -118.458771 39,000 131 443 0
2018-07-12 14:14:54 GMT 34.744766 -118.463219 39,000 131 444 0
2018-07-12 14:14:51 GMT 34.748032 -118.467690 39,000 131 444 0
2018-07-12 14:14:48 GMT 34.753510 -118.475159 39,000 131 444 0
2018-07-12 14:14:43 GMT 34.760559 -118.484856 39,000 131 444 0
2018-07-12 14:14:39 GMT 34.764000 -118.489555 39,000 131 444 0
2018-07-12 14:14:35 GMT 34.770950 -118.499039 39,000 131 444 0
2018-07-12 14:14:30 GMT 34.778198 -118.508949 39,000 131 444 0
2018-07-12 14:14:25 GMT 34.785278 -118.518661 39,000 131 445 0
2018-07-12 14:14:22 GMT 34.789371 -118.524223 39,000 131 445 0
2018-07-12 14:14:18 GMT 34.795258 -118.532280 39,000 131 445 0
2018-07-12 14:14:15 GMT 34.797890 -118.535789 39,000 131 446 0
2018-07-12 14:14:12 GMT 34.801437 -118.540688 39,000 131 446 0
2018-07-12 14:14:09 GMT 34.805012 -118.545509 39,000 131 446 64
2018-07-12 14:14:05 GMT 34.812553 -118.555817 39,000 131 446 64
2018-07-12 14:14:02 GMT 34.816978 -118.561821 39,000 131 446 0
2018-07-12 14:13:58 GMT 34.820282 -118.566284 39,000 131 446 0
2018-07-12 14:13:54 GMT 34.827682 -118.576408 39,000 131 447 0
2018-07-12 14:13:51 GMT 34.831966 -118.582191 39,000 131 447 0
2018-07-12 14:13:47 GMT 34.836136 -118.587830 39,000 131 447 0
2018-07-12 14:13:43 GMT 34.842453 -118.596458 39,000 131 449 0
2018-07-12 14:13:40 GMT 34.847702 -118.603592 39,000 131 449 0
2018-07-12 14:13:36 GMT 34.852982 -118.610756 39,000 131 449 0
2018-07-12 14:13:32 GMT 34.857834 -118.617310 39,000 131 449 0
2018-07-12 14:13:29 GMT 34.862640 -118.623871 39,000 131 449 0
2018-07-12 14:13:26 GMT 34.866119 -118.628578 39,000 131 449 0
2018-07-12 14:13:23 GMT 34.870422 -118.634460 39,000 131 449 0
2018-07-12 14:13:18 GMT 34.878159 -118.645004 39,000 131 450 0
2018-07-12 14:13:15 GMT 34.881226 -118.649147 39,000 131 450 0
2018-07-12 14:13:12 GMT 34.885757 -118.655373 39,000 131 450 0
2018-07-12 14:13:09 GMT 34.890205 -118.661446 39,000 131 450 0
2018-07-12 14:13:05 GMT 34.894592 -118.667534 39,000 131 450 0
2018-07-12 14:13:02 GMT 34.897652 -118.671684 39,000 131 450 0
2018-07-12 14:12:59 GMT 34.904022 -118.680367 39,000 131 451 0
2018-07-12 14:12:56 GMT 34.906776 -118.684158 39,000 131 451 0
2018-07-12 14:12:52 GMT 34.913296 -118.693085 39,000 131 451 0
2018-07-12 14:12:49 GMT 34.916611 -118.697632 39,000 131 451 0
2018-07-12 14:12:46 GMT 34.921463 -118.704308 39,000 131 451 0
2018-07-12 14:12:41 GMT 34.926727 -118.711533 39,000 131 452 0
2018-07-12 14:12:37 GMT 34.933777 -118.721230 39,000 131 452 0
2018-07-12 14:12:34 GMT 34.937210 -118.725998 39,000 131 452 0
2018-07-12 14:12:31 GMT 34.941238 -118.731491 39,000 131 452 0
2018-07-12 14:12:28 GMT 34.946365 -118.738556 39,000 131 452 0
2018-07-12 14:12:24 GMT 34.950623 -118.744438 39,000 131 452 0
2018-07-12 14:12:20 GMT 34.956436 -118.752457 39,000 131 452 0
2018-07-12 14:12:17 GMT 34.962269 -118.760429 39,000 131 452 0
2018-07-12 14:12:14 GMT 34.965992 -118.765579 39,000 131 452 0
2018-07-12 14:12:09 GMT 34.971268 -118.772858 39,000 131 452 0
2018-07-12 14:12:06 GMT 34.976395 -118.779922 39,000 131 452 0
2018-07-12 14:12:03 GMT 34.979164 -118.783722 39,000 131 452 0
2018-07-12 14:11:59 GMT 34.986893 -118.794418 39,000 131 452 0
2018-07-12 14:11:55 GMT 34.990803 -118.799744 39,000 131 452 0
2018-07-12 14:11:52 GMT 34.994808 -118.805290 39,000 131 453 0
2018-07-12 14:11:47 GMT 35.001572 -118.814674 39,000 131 453 0
2018-07-12 14:11:44 GMT 35.006584 -118.821548 39,000 131 453 0
2018-07-12 14:11:41 GMT 35.012009 -118.829025 39,000 131 453 0
2018-07-12 14:11:37 GMT 35.016968 -118.835854 39,000 131 453 0
2018-07-12 14:11:34 GMT 35.021854 -118.842545 39,000 131 453 0
2018-07-12 14:11:29 GMT 35.031418 -118.855759 39,000 131 453 0
2018-07-12 14:11:25 GMT 35.033630 -118.858795 39,000 131 453 0
2018-07-12 14:11:22 GMT 35.037781 -118.864555 39,000 131 453 0
2018-07-12 14:11:18 GMT 35.044189 -118.873306 39,000 131 453 0
2018-07-12 14:11:15 GMT 35.046246 -118.876190 39,000 131 452 0
2018-07-12 14:11:12 GMT 35.051926 -118.884026 39,000 131 453 0
2018-07-12 14:11:09 GMT 35.055931 -118.889580 39,000 131 452 0
2018-07-12 14:11:03 GMT 35.065109 -118.902168 39,000 131 452 0
2018-07-12 14:10:59 GMT 35.068130 -118.906372 39,000 131 453 0
2018-07-12 14:10:56 GMT 35.073944 -118.914444 39,000 131 453 0
2018-07-12 14:10:53 GMT 35.076599 -118.918076 39,000 131 453 0
2018-07-12 14:10:49 GMT 35.083534 -118.927628 39,000 131 454 0
2018-07-12 14:10:46 GMT 35.087029 -118.932442 39,000 131 454 0
2018-07-12 14:10:41 GMT 35.094086 -118.942245 39,000 131 454 0
2018-07-12 14:10:38 GMT 35.099487 -118.949699 39,000 131 454 0
2018-07-12 14:10:34 GMT 35.102966 -118.954521 39,000 131 454 0
2018-07-12 14:10:30 GMT 35.109238 -118.963158 39,000 131 454 0
2018-07-12 14:10:26 GMT 35.114773 -118.970833 39,000 131 454 0
2018-07-12 14:10:23 GMT 35.119057 -118.976784 39,000 131 454 0
2018-07-12 14:10:19 GMT 35.124363 -118.984108 39,000 131 454 0
2018-07-12 14:10:15 GMT 35.130157 -118.992188 39,000 131 454 0
2018-07-12 14:10:12 GMT 35.134323 -118.997894 39,000 131 454 0
2018-07-12 14:10:08 GMT 35.139446 -119.005051 39,000 131 454 0
2018-07-12 14:10:05 GMT 35.144890 -119.012489 39,000 131 454 0
2018-07-12 14:10:02 GMT 35.149017 -119.018257 39,000 131 453 0
2018-07-12 14:09:58 GMT 35.153732 -119.024811 39,000 131 453 0
2018-07-12 14:09:54 GMT 35.159958 -119.033447 39,000 131 454 0
2018-07-12 14:09:50 GMT 35.165932 -119.041733 39,000 131 454 0
2018-07-12 14:09:47 GMT 35.167889 -119.044418 39,000 131 454 0
2018-07-12 14:09:43 GMT 35.174240 -119.053230 39,000 131 453 0
2018-07-12 14:09:40 GMT 35.180054 -119.061302 39,000 131 453 0
2018-07-12 14:09:37 GMT 35.183109 -119.065536 39,000 131 453 0
2018-07-12 14:09:32 GMT 35.190857 -119.076271 39,000 131 453 0
2018-07-12 14:09:29 GMT 35.194748 -119.081673 39,000 131 453 0
2018-07-12 14:09:25 GMT 35.200150 -119.089165 39,000 131 453 0
2018-07-12 14:09:21 GMT 35.205132 -119.096085 39,000 131 452 0
2018-07-12 14:09:16 GMT 35.212280 -119.106087 39,000 131 452 0
2018-07-12 14:09:12 GMT 35.216721 -119.112198 39,000 131 452 0
2018-07-12 14:09:09 GMT 35.220306 -119.117203 39,000 131 452 0
2018-07-12 14:09:06 GMT 35.226929 -119.126434 39,000 131 452 0
2018-07-12 14:09:02 GMT 35.232330 -119.133911 39,000 131 452 0
2018-07-12 14:08:58 GMT 35.235489 -119.138313 39,000 131 452 0
2018-07-12 14:08:54 GMT 35.243069 -119.148888 39,000 131 452 0
2018-07-12 14:08:51 GMT 35.247208 -119.154625 39,000 131 452 0
2018-07-12 14:08:46 GMT 35.253021 -119.162689 39,000 131 451 0
2018-07-12 14:08:43 GMT 35.257553 -119.169044 39,000 131 451 0
2018-07-12 14:08:40 GMT 35.260994 -119.173843 39,000 131 451 0
2018-07-12 14:08:37 GMT 35.265381 -119.179977 39,000 131 451 0
2018-07-12 14:08:33 GMT 35.270508 -119.187073 39,000 131 451 0
2018-07-12 14:08:30 GMT 35.276276 -119.195137 39,000 131 451 0
2018-07-12 14:08:26 GMT 35.280533 -119.201088 39,000 131 451 0
2018-07-12 14:08:19 GMT 35.290970 -119.215675 39,000 131 451 0
2018-07-12 14:08:16 GMT 35.293854 -119.219688 39,000 131 451 0
2018-07-12 14:08:13 GMT 35.297287 -119.224487 39,000 131 451 0
2018-07-12 14:08:10 GMT 35.303192 -119.232735 39,000 131 450 0
2018-07-12 14:08:07 GMT 35.305637 -119.236198 39,000 131 450 0
2018-07-12 14:08:04 GMT 35.310478 -119.242920 39,000 131 450 0
2018-07-12 14:07:59 GMT 35.318672 -119.254372 39,000 131 449 0
2018-07-12 14:07:55 GMT 35.322117 -119.259163 39,000 131 450 0
2018-07-12 14:07:52 GMT 35.328140 -119.267578 39,000 131 449 0
2018-07-12 14:07:46 GMT 35.336380 -119.279022 39,000 131 449 0
2018-07-12 14:07:42 GMT 35.340225 -119.284348 39,000 131 449 0
2018-07-12 14:07:35 GMT 35.350616 -119.298882 39,000 131 449 0
2018-07-12 14:07:31 GMT 35.355423 -119.305573 39,000 131 448 -64
2018-07-12 14:07:28 GMT 35.359219 -119.310936 39,000 131 448 64
2018-07-12 14:07:25 GMT 35.364441 -119.318161 39,000 131 448 64
2018-07-12 14:07:22 GMT 35.369644 -119.325432 39,000 131 448 64
2018-07-12 14:07:19 GMT 35.371536 -119.328117 39,000 131 448 64
2018-07-12 14:07:16 GMT 35.377396 -119.336304 39,000 131 448 0
2018-07-12 14:07:13 GMT 35.381378 -119.341850 39,000 131 447 0
2018-07-12 14:07:09 GMT 35.387100 -119.349861 39,000 131 447 0
2018-07-12 14:07:05 GMT 35.391586 -119.356094 39,000 131 447 64
2018-07-12 14:07:02 GMT 35.396229 -119.362595 39,000 131 447 0
2018-07-12 14:06:59 GMT 35.399673 -119.367393 39,000 131 447 0
2018-07-12 14:06:56 GMT 35.403908 -119.373291 39,000 131 447 -64
2018-07-12 14:06:51 GMT 35.411957 -119.384537 39,000 131 447 0
2018-07-12 14:06:46 GMT 35.416718 -119.391235 39,000 131 447 0
2018-07-12 14:06:42 GMT 35.424995 -119.402802 39,000 131 447 0
2018-07-12 14:06:36 GMT 35.430725 -119.410858 39,000 131 447 0
2018-07-12 14:06:31 GMT 35.439335 -119.422852 39,000 131 447 0
2018-07-12 14:06:27 GMT 35.442581 -119.427399 39,000 131 447 0
2018-07-12 14:06:24 GMT 35.448166 -119.435234 39,000 131 447 0
2018-07-12 14:06:19 GMT 35.453720 -119.443069 39,000 131 447 0
2018-07-12 14:06:15 GMT 35.460800 -119.452972 39,000 131 447 0
2018-07-12 14:06:08 GMT 35.468124 -119.463272 39,000 130 447 64
2018-07-12 14:06:05 GMT 35.473709 -119.471107 39,000 130 447 0
2018-07-12 14:06:01 GMT 35.479660 -119.479523 39,000 130 447 0
2018-07-12 14:05:57 GMT 35.484970 -119.486961 39,000 131 447 0
2018-07-12 14:05:52 GMT 35.490555 -119.494804 39,000 131 447 -64
2018-07-12 14:05:47 GMT 35.496639 -119.503372 39,000 131 447 0
2018-07-12 14:05:43 GMT 35.504425 -119.514313 39,000 131 447 0
2018-07-12 14:05:36 GMT 35.514050 -119.527863 39,000 131 447 0
2018-07-12 14:05:32 GMT 35.519211 -119.535141 39,000 131 447 0
2018-07-12 14:05:25 GMT 35.526432 -119.545273 39,000 131 447 0
2018-07-12 14:05:21 GMT 35.533741 -119.555618 39,000 131 447 0
2018-07-12 14:05:16 GMT 35.540543 -119.565186 39,000 131 447 0
2018-07-12 14:05:10 GMT 35.548965 -119.577026 39,000 131 447 0
2018-07-12 14:05:07 GMT 35.553062 -119.582794 39,000 131 447 0
2018-07-12 14:05:04 GMT 35.556610 -119.587784 39,000 130 448 0
2018-07-12 14:04:58 GMT 35.565445 -119.600204 39,000 130 448 0
2018-07-12 14:04:54 GMT 35.570423 -119.607338 39,000 130 448 0
2018-07-12 14:04:48 GMT 35.577942 -119.617882 39,000 130 448 0
2018-07-12 14:04:43 GMT 35.585266 -119.628242 39,000 130 448 0
2018-07-12 14:04:39 GMT 35.591354 -119.636879 39,000 130 448 0
2018-07-12 14:04:35 GMT 35.594353 -119.641052 39,000 130 448 0
2018-07-12 14:04:32 GMT 35.600327 -119.649529 39,000 130 448 0
2018-07-12 14:04:27 GMT 35.606873 -119.658737 39,000 130 448 0
2018-07-12 14:04:24 GMT 35.609158 -119.661980 39,000 130 448 0
2018-07-12 14:04:21 GMT 35.615845 -119.671387 39,000 130 448 0
2018-07-12 14:04:15 GMT 35.623993 -119.682884 39,000 130 448 0
2018-07-12 14:04:10 GMT 35.630676 -119.692329 39,000 130 448 0
2018-07-12 14:04:04 GMT 35.639099 -119.704224 39,000 130 448 0
2018-07-12 14:03:59 GMT 35.644684 -119.712067 39,000 130 448 0
2018-07-12 14:03:56 GMT 35.648495 -119.717491 39,000 130 448 0
2018-07-12 14:03:53 GMT 35.653381 -119.724365 39,000 130 448 0
2018-07-12 14:03:49 GMT 35.659103 -119.732437 39,000 130 448 0
2018-07-12 14:03:45 GMT 35.663158 -119.738182 39,000 130 448 0
2018-07-12 14:03:41 GMT 35.668900 -119.746284 39,000 130 448 0
2018-07-12 14:03:37 GMT 35.674889 -119.754715 39,000 130 448 0
2018-07-12 14:03:34 GMT 35.677727 -119.758751 39,000 130 448 0
2018-07-12 14:03:30 GMT 35.683594 -119.767044 39,000 130 448 0
2018-07-12 14:03:26 GMT 35.689274 -119.775108 39,000 130 448 0
2018-07-12 14:03:23 GMT 35.692429 -119.779533 39,000 130 448 0
2018-07-12 14:03:19 GMT 35.699608 -119.789719 39,000 130 448 0
2018-07-12 14:03:16 GMT 35.703842 -119.795685 39,000 130 448 0
2018-07-12 14:03:12 GMT 35.708591 -119.802399 39,000 130 448 0
2018-07-12 14:03:08 GMT 35.713341 -119.809120 39,000 130 448 0
2018-07-12 14:03:04 GMT 35.718090 -119.815903 39,000 130 448 0
2018-07-12 14:03:00 GMT 35.724094 -119.824371 39,000 130 449 0
2018-07-12 14:02:55 GMT 35.731960 -119.835533 39,000 130 448 64
2018-07-12 14:02:51 GMT 35.737499 -119.843422 39,000 130 449 0
2018-07-12 14:02:47 GMT 35.743469 -119.851913 39,000 130 448 0
2018-07-12 14:02:43 GMT 35.748596 -119.859238 39,000 130 448 0
2018-07-12 14:02:40 GMT 35.751186 -119.862946 39,000 130 448 0
2018-07-12 14:02:37 GMT 35.756699 -119.870850 39,000 130 448 0
2018-07-12 14:02:33 GMT 35.761459 -119.877602 39,000 130 448 0
2018-07-12 14:02:28 GMT 35.768326 -119.887505 39,000 130 448 0
2018-07-12 14:02:25 GMT 35.773453 -119.894829 39,000 130 448 0
2018-07-12 14:02:22 GMT 35.776836 -119.899643 39,000 130 448 0
2018-07-12 14:02:17 GMT 35.783077 -119.908524 39,000 130 448 0
2018-07-12 14:02:13 GMT 35.789841 -119.918236 39,000 130 448 0
2018-07-12 14:02:10 GMT 35.793228 -119.923035 39,000 130 448 0
2018-07-12 14:02:07 GMT 35.797787 -119.929619 39,000 130 448 0
2018-07-12 14:02:03 GMT 35.802536 -119.936401 39,000 130 448 64
2018-07-12 14:02:00 GMT 35.804993 -119.939857 39,000 130 448 0
2018-07-12 14:01:57 GMT 35.809841 -119.946800 39,000 130 448 0
2018-07-12 14:01:54 GMT 35.814590 -119.953583 39,000 130 448 0
2018-07-12 14:01:51 GMT 35.819061 -119.959953 39,000 130 448 0
2018-07-12 14:01:48 GMT 35.822296 -119.964584 39,000 130 448 0
2018-07-12 14:01:45 GMT 35.826370 -119.970413 39,000 130 448 0
2018-07-12 14:01:40 GMT 35.833817 -119.981049 39,000 130 448 0
2018-07-12 14:01:37 GMT 35.837215 -119.985840 39,000 130 448 0
2018-07-12 14:01:33 GMT 35.844013 -119.995483 39,000 130 448 0
2018-07-12 14:01:30 GMT 35.846970 -119.999718 39,000 130 448 0
2018-07-12 14:01:27 GMT 35.850632 -120.004921 39,000 130 449 0
2018-07-12 14:01:24 GMT 35.853462 -120.008980 39,000 130 448 0
2018-07-12 14:01:21 GMT 35.858490 -120.016106 39,000 130 448 -64
2018-07-12 14:01:17 GMT 35.865288 -120.025749 39,000 130 448 0
2018-07-12 14:01:14 GMT 35.867706 -120.029259 39,000 130 448 0
2018-07-12 14:01:11 GMT 35.872604 -120.036163 39,000 130 448 0
2018-07-12 14:01:07 GMT 35.878414 -120.044449 39,000 130 448 0
2018-07-12 14:01:03 GMT 35.883545 -120.051788 39,000 130 448 0
2018-07-12 14:00:59 GMT 35.890194 -120.061279 39,000 130 448 512
2018-07-12 14:00:56 GMT 35.893452 -120.065956 39,000 130 450 -64
2018-07-12 14:00:52 GMT 35.896896 -120.070747 39,000 130 450 -64
2018-07-12 14:00:45 GMT 35.908813 -120.087830 38,900 130 449 1152
2018-07-12 14:00:42 GMT 35.911282 -120.091316 38,975 130 448 640
2018-07-12 14:00:38 GMT 35.918060 -120.100937 38,900 130 448 1152
2018-07-12 14:00:34 GMT 35.923340 -120.108498 38,825 130 450 1024
2018-07-12 14:00:31 GMT 35.927444 -120.114326 38,775 130 450 0
2018-07-12 14:00:25 GMT 35.935593 -120.125938 38,650 130 450 1088
2018-07-12 14:00:22 GMT 35.938980 -120.130821 38,600 130 450 896
2018-07-12 14:00:19 GMT 35.942505 -120.135841 38,575 130 450 896
2018-07-12 14:00:14 GMT 35.950291 -120.146896 38,500 130 450 832
2018-07-12 14:00:11 GMT 35.954762 -120.153320 38,475 130 449 768
2018-07-12 14:00:08 GMT 35.957474 -120.157188 38,450 130 449 768
2018-07-12 14:00:02 GMT 35.967545 -120.171494 38,350 130 447 704
2018-07-12 13:59:59 GMT 35.970886 -120.176353 38,325 130 447 640
2018-07-12 13:59:56 GMT 35.973755 -120.180435 38,300 130 448 640
2018-07-12 13:59:53 GMT 35.978596 -120.187393 38,275 130 447 640
2018-07-12 13:59:50 GMT 35.983475 -120.194321 38,200 130 446 640
2018-07-12 13:59:47 GMT 35.987534 -120.200073 38,200 130 446 768
2018-07-12 13:59:42 GMT 35.992794 -120.207611 38,100 130 446 1088
2018-07-12 13:59:39 GMT 35.998306 -120.215492 38,050 130 446 1152
2018-07-12 13:59:36 GMT 36.002197 -120.221054 38,000 130 446 1088
2018-07-12 13:59:32 GMT 36.007736 -120.228996 37,925 130 446 1152
2018-07-12 13:59:29 GMT 36.012177 -120.235352 37,850 130 446 1216
2018-07-12 13:59:25 GMT 36.014832 -120.239182 37,775 130 446 1088
2018-07-12 13:59:21 GMT 36.020634 -120.247467 37,100 130 446 1216
2018-07-12 13:59:17 GMT 36.027893 -120.257927 37,625 130 446 1216
2018-07-12 13:59:14 GMT 36.030594 -120.261780 37,600 130 446 1216
2018-07-12 13:59:11 GMT 36.034378 -120.267159 37,525 130 446 1152
2018-07-12 13:59:07 GMT 36.041489 -120.277382 37,425 130 446 1216
2018-07-12 13:59:04 GMT 36.044998 -120.282440 37,375 130 446 1216
2018-07-12 13:58:59 GMT 36.051865 -120.292282 37,100 130 446 1216
2018-07-12 13:58:54 GMT 36.057816 -120.300812 37,100 130 447 1216
2018-07-12 13:58:51 GMT 36.061981 -120.306763 37,125 130 447 1216
2018-07-12 13:58:48 GMT 36.066696 -120.313568 36,975 130 447 1216
2018-07-12 13:58:44 GMT 36.071686 -120.320724 36,975 130 447 1216
2018-07-12 13:58:41 GMT 36.074615 -120.325012 36,925 130 447 1280
2018-07-12 13:58:38 GMT 36.078552 -120.330620 36,850 130 447 1216
2018-07-12 13:58:34 GMT 36.084503 -120.339149 36,725 130 448 1280
2018-07-12 13:58:31 GMT 36.089622 -120.346519 36,675 130 448 1408
2018-07-12 13:58:28 GMT 36.091507 -120.349213 36,550 130 448 1792
2018-07-12 13:58:25 GMT 36.098236 -120.358910 36,500 130 448 1984
2018-07-12 13:58:21 GMT 36.103134 -120.365929 36,275 130 451 2112
2018-07-12 13:58:18 GMT 36.106102 -120.370186 36,300 130 453 1920
2018-07-12 13:58:14 GMT 36.111008 -120.377251 36,200 130 453 1920
2018-07-12 13:58:11 GMT 36.115219 -120.383324 36,075 130 453 1856
2018-07-12 13:58:08 GMT 36.119751 -120.389786 35,975 130 453 1664
2018-07-12 13:58:05 GMT 36.123688 -120.395508 35,800 130 454 1344
2018-07-12 13:58:00 GMT 36.131752 -120.407120 35,750 130 454 1344
2018-07-12 13:57:56 GMT 36.136826 -120.414421 35,700 130 454 1344
2018-07-12 13:57:52 GMT 36.141621 -120.421318 35,625 130 454 1344
2018-07-12 13:57:48 GMT 36.146805 -120.428864 35,550 130 454 1344
2018-07-12 13:57:44 GMT 36.154053 -120.439316 35,425 130 455 1408
2018-07-12 13:57:38 GMT 36.162243 -120.451180 35,300 130 456 1408
2018-07-12 13:57:35 GMT 36.166203 -120.456909 35,150 130 456 1408
2018-07-12 13:57:32 GMT 36.168110 -120.459709 35,200 130 456 1408
2018-07-12 13:57:29 GMT 36.173740 -120.467834 35,075 130 457 1152
2018-07-12 13:57:26 GMT 36.178391 -120.474586 35,025 130 456 640
2018-07-12 13:57:21 GMT 36.182922 -120.481110 35,000 130 456 0
2018-07-12 13:57:17 GMT 36.190502 -120.492027 35,000 130 456 0
2018-07-12 13:57:14 GMT 36.192673 -120.495186 35,000 130 456 0
2018-07-12 13:57:10 GMT 36.200508 -120.506523 35,000 130 457 64
2018-07-12 13:57:07 GMT 36.204895 -120.512871 35,000 130 457 0
2018-07-12 13:57:03 GMT 36.207642 -120.516815 35,000 130 457 0
2018-07-12 13:56:59 GMT 36.215332 -120.527969 35,000 130 457 0
2018-07-12 13:56:56 GMT 36.220295 -120.535095 35,000 130 457 0
2018-07-12 13:56:53 GMT 36.221786 -120.537300 35,000 130 457 -64
2018-07-12 13:56:50 GMT 36.227417 -120.545441 35,000 130 456 -64
2018-07-12 13:56:44 GMT 36.235657 -120.557304 35,000 130 456 0
2018-07-12 13:56:39 GMT 36.242126 -120.566650 35,000 130 456 64
2018-07-12 13:56:36 GMT 36.244858 -120.570602 35,000 130 456 0
2018-07-12 13:56:31 GMT 36.252975 -120.582314 35,000 130 456 0
2018-07-12 13:56:28 GMT 36.258453 -120.590225 35,000 130 456 0
2018-07-12 13:56:23 GMT 36.264359 -120.598755 35,000 130 456 0
2018-07-12 13:56:18 GMT 36.270813 -120.608086 35,000 130 456 0
2018-07-12 13:56:15 GMT 36.274796 -120.613861 35,000 130 456 0
2018-07-12 13:56:12 GMT 36.278503 -120.619240 35,000 130 456 0
2018-07-12 13:56:07 GMT 36.286469 -120.630737 35,000 130 456 0
2018-07-12 13:56:04 GMT 36.289902 -120.635719 35,000 130 456 0
2018-07-12 13:56:01 GMT 36.293472 -120.640869 35,000 130 456 0
2018-07-12 13:55:57 GMT 36.300179 -120.650574 35,000 130 456 0
2018-07-12 13:55:54 GMT 36.304001 -120.656143 35,000 130 456 0
2018-07-12 13:55:51 GMT 36.308418 -120.662491 35,000 130 456 0
2018-07-12 13:55:46 GMT 36.315121 -120.672249 35,000 130 456 0
2018-07-12 13:55:43 GMT 36.319077 -120.678040 35,000 130 456 0
2018-07-12 13:55:39 GMT 36.323360 -120.684174 35,000 130 456 0
2018-07-12 13:55:35 GMT 36.330204 -120.694107 35,000 130 456 0
2018-07-12 13:55:31 GMT 36.334305 -120.700089 35,000 130 456 0
2018-07-12 13:55:28 GMT 36.339794 -120.708076 35,000 130 456 0
2018-07-12 13:55:24 GMT 36.344696 -120.715202 35,000 130 456 0
2018-07-12 13:55:20 GMT 36.350876 -120.724182 35,000 130 456 0
2018-07-12 13:55:16 GMT 36.356461 -120.732384 35,000 130 456 0
2018-07-12 13:55:12 GMT 36.360043 -120.737526 35,000 130 456 0
2018-07-12 13:55:09 GMT 36.366714 -120.747299 35,000 130 456 0
2018-07-12 13:55:04 GMT 36.372475 -120.755699 35,000 130 456 0
2018-07-12 13:55:01 GMT 36.375183 -120.759659 35,000 130 456 0
2018-07-12 13:54:58 GMT 36.380539 -120.767441 35,000 130 456 0
2018-07-12 13:54:53 GMT 36.385696 -120.775040 35,000 130 456 0
2018-07-12 13:54:50 GMT 36.391296 -120.783234 35,000 130 456 0
2018-07-12 13:54:47 GMT 36.396927 -120.791412 35,000 130 456 0
2018-07-12 13:54:43 GMT 36.402126 -120.798943 35,000 130 456 0
2018-07-12 13:54:40 GMT 36.406082 -120.804726 35,000 130 456 64
2018-07-12 13:54:37 GMT 36.409653 -120.809959 35,000 130 456 64
2018-07-12 13:54:34 GMT 36.413208 -120.815132 35,000 130 456 64
2018-07-12 13:54:31 GMT 36.417572 -120.821457 35,000 130 457 0
2018-07-12 13:54:26 GMT 36.424301 -120.831245 35,000 130 456 0
2018-07-12 13:54:22 GMT 36.429520 -120.838799 35,000 130 456 0
2018-07-12 13:54:18 GMT 36.436203 -120.848579 35,000 130 456 0
2018-07-12 13:54:15 GMT 36.439743 -120.853760 35,000 130 456 0
2018-07-12 13:54:11 GMT 36.444122 -120.860138 35,000 130 456 0
2018-07-12 13:54:07 GMT 36.450401 -120.869362 35,000 130 456 0
2018-07-12 13:54:04 GMT 36.455063 -120.876099 35,000 130 456 0
2018-07-12 13:54:00 GMT 36.460270 -120.883736 35,000 130 456 0
2018-07-12 13:53:56 GMT 36.465866 -120.891891 35,000 130 456 0
2018-07-12 13:53:53 GMT 36.469803 -120.897675 35,000 130 456 0
2018-07-12 13:53:50 GMT 36.474335 -120.904259 35,000 130 456 0
2018-07-12 13:53:45 GMT 36.480469 -120.913239 35,000 130 456 -64
2018-07-12 13:53:42 GMT 36.484802 -120.919678 35,000 130 456 -64
2018-07-12 13:53:39 GMT 36.489716 -120.926857 35,000 130 456 -64
2018-07-12 13:53:34 GMT 36.495987 -120.936012 35,000 130 456 -64
2018-07-12 13:53:31 GMT 36.500355 -120.942406 35,000 130 456 -64
2018-07-12 13:53:28 GMT 36.503494 -120.946999 35,025 130 456 0
2018-07-12 13:53:24 GMT 36.507336 -120.952576 35,000 130 456 0
2018-07-12 13:53:21 GMT 36.512131 -120.959587 35,000 130 454 128
2018-07-12 13:53:18 GMT 36.516319 -120.965729 35,000 130 454 640
2018-07-12 13:53:15 GMT 36.521622 -120.973495 34,925 130 453 1024
2018-07-12 13:53:08 GMT 36.530869 -120.987000 34,650 130 454 1728
2018-07-12 13:53:04 GMT 36.535629 -120.993919 34,675 130 454 1728
2018-07-12 13:53:01 GMT 36.540249 -121.000671 34,500 130 456 1664
2018-07-12 13:52:57 GMT 36.546524 -121.009827 34,400 130 456 1664
2018-07-12 13:52:54 GMT 36.550072 -121.015045 34,375 130 456 1664
2018-07-12 13:52:50 GMT 36.556355 -121.024223 34,225 130 456 1728
2018-07-12 13:52:47 GMT 36.557831 -121.026421 34,200 130 456 1728
2018-07-12 13:52:43 GMT 36.564129 -121.035614 34,075 130 456 1728
2018-07-12 13:52:39 GMT 36.570282 -121.044617 33,950 130 457 1728
2018-07-12 13:52:35 GMT 36.576279 -121.053444 33,800 130 458 1728
2018-07-12 13:52:32 GMT 36.579166 -121.057648 33,750 130 458 1728
2018-07-12 13:52:27 GMT 36.586121 -121.067902 33,575 130 459 1728
2018-07-12 13:52:24 GMT 36.591476 -121.075745 33,500 130 459 1728
2018-07-12 13:52:21 GMT 36.594910 -121.080780 33,250 130 461 1792
2018-07-12 13:52:16 GMT 36.601913 -121.091080 33,175 130 461 1792
2018-07-12 13:52:13 GMT 36.606304 -121.097565 33,150 130 461 1728
2018-07-12 13:52:10 GMT 36.608913 -121.101418 33,125 130 461 1728
2018-07-12 13:52:05 GMT 36.617340 -121.113739 32,950 130 463 1728
2018-07-12 13:52:00 GMT 36.623566 -121.122894 32,825 130 464 1664
2018-07-12 13:51:54 GMT 36.633224 -121.137138 32,625 130 464 1664
2018-07-12 13:51:51 GMT 36.637253 -121.143036 32,525 130 464 1664
2018-07-12 13:51:48 GMT 36.640686 -121.148186 32,475 130 465 1664
2018-07-12 13:51:43 GMT 36.647503 -121.158165 32,350 130 465 1664
2018-07-12 13:51:39 GMT 36.653744 -121.167397 32,225 130 465 1664
2018-07-12 13:51:31 GMT 36.662636 -121.180489 32,000 130 466 1600
2018-07-12 13:51:28 GMT 36.668594 -121.189308 31,950 130 466 1600
2018-07-12 13:51:22 GMT 36.676369 -121.200760 31,750 130 467 1664
2018-07-12 13:51:19 GMT 36.681255 -121.207954 31,675 130 467 1664
2018-07-12 13:51:16 GMT 36.685024 -121.213501 31,600 130 467 1664
2018-07-12 13:51:11 GMT 36.692688 -121.224861 31,425 130 469 1664
2018-07-12 13:51:08 GMT 36.696896 -121.231033 31,375 130 469 1664
2018-07-12 13:51:05 GMT 36.699966 -121.235558 31,225 129 469 1664
2018-07-12 13:50:59 GMT 36.708893 -121.248779 31,125 130 470 1664
2018-07-12 13:50:56 GMT 36.713242 -121.255188 31,050 130 470 1664
2018-07-12 13:50:53 GMT 36.715935 -121.259140 30,675 130 470 1664
2018-07-12 13:50:49 GMT 36.723198 -121.269897 30,850 130 470 1664
2018-07-12 13:50:45 GMT 36.727432 -121.276131 30,750 130 470 1664
2018-07-12 13:50:42 GMT 36.732330 -121.283340 30,675 130 471 1664
2018-07-12 13:50:38 GMT 36.738094 -121.291870 30,550 130 471 1600
2018-07-12 13:50:35 GMT 36.742146 -121.297890 30,450 130 471 1664
2018-07-12 13:50:32 GMT 36.747639 -121.305954 30,375 130 471 1664
2018-07-12 13:50:27 GMT 36.754074 -121.315498 30,225 130 471 1664
2018-07-12 13:50:24 GMT 36.758148 -121.321564 30,175 130 471 1664
2018-07-12 13:50:21 GMT 36.761398 -121.326309 30,075 129 472 1600
2018-07-12 13:50:16 GMT 36.769936 -121.339027 29,900 129 472 1600
2018-07-12 13:50:13 GMT 36.773575 -121.344398 29,875 129 472 1600
2018-07-12 13:50:09 GMT 36.777924 -121.350861 29,550 129 472 1664
2018-07-12 13:50:05 GMT 36.784653 -121.360870 29,600 129 472 1664
2018-07-12 13:50:01 GMT 36.788864 -121.367111 29,575 129 472 1664
2018-07-12 13:49:58 GMT 36.792664 -121.372719 29,500 129 472 1664
2018-07-12 13:49:53 GMT 36.802059 -121.386711 29,300 129 474 1664
2018-07-12 13:49:50 GMT 36.804337 -121.390060 29,275 129 474 1664
2018-07-12 13:49:46 GMT 36.811798 -121.401215 28,975 129 479 1664
2018-07-12 13:49:40 GMT 36.819885 -121.413185 28,975 129 478 1664
2018-07-12 13:49:36 GMT 36.823982 -121.419319 28,875 129 479 1664
2018-07-12 13:49:32 GMT 36.831104 -121.429901 28,725 129 479 1600
2018-07-12 13:49:29 GMT 36.836086 -121.437317 28,650 129 479 1536
2018-07-12 13:49:26 GMT 36.839111 -121.441757 28,600 129 480 1536
2018-07-12 13:49:20 GMT 36.848923 -121.456429 28,425 129 479 1472
2018-07-12 13:49:17 GMT 36.851635 -121.460487 28,375 129 479 1472
2018-07-12 13:49:14 GMT 36.854942 -121.465324 28,075 129 477 1472
2018-07-12 13:49:09 GMT 36.864899 -121.480209 28,175 129 479 1472
2018-07-12 13:49:06 GMT 36.867882 -121.484604 28,100 129 479 1472
2018-07-12 13:49:03 GMT 36.871033 -121.489273 28,025 129 478 1472
2018-07-12 13:48:59 GMT 36.878681 -121.500725 27,900 129 478 1472
2018-07-12 13:48:56 GMT 36.882545 -121.506462 27,850 129 478 1472
2018-07-12 13:48:53 GMT 36.886826 -121.512764 27,675 129 478 1472
2018-07-12 13:48:47 GMT 36.894470 -121.524216 27,600 129 477 1472
2018-07-12 13:48:44 GMT 36.900143 -121.532669 27,550 129 477 1472
2018-07-12 13:48:41 GMT 36.904240 -121.538765 27,475 129 477 1472
2018-07-12 13:48:37 GMT 36.909641 -121.546761 27,375 129 476 1472
2018-07-12 13:48:33 GMT 36.915134 -121.555000 27,275 129 476 1472
2018-07-12 13:48:30 GMT 36.918823 -121.560509 27,000 129 475 1536
2018-07-12 13:48:26 GMT 36.925327 -121.570168 27,100 129 475 1472
2018-07-12 13:48:22 GMT 36.931103 -121.578827 27,000 129 475 1536
2018-07-12 13:48:19 GMT 36.935623 -121.585579 26,925 129 475 1536
2018-07-12 13:48:13 GMT 36.942078 -121.595276 26,800 129 475 1536
2018-07-12 13:48:10 GMT 36.947163 -121.602829 26,725 129 475 1536
2018-07-12 13:48:07 GMT 36.953064 -121.611641 26,600 129 474 1536
2018-07-12 13:48:04 GMT 36.955765 -121.615669 26,550 129 473 1536
2018-07-12 13:48:01 GMT 36.960663 -121.622978 26,475 129 473 1536
2018-07-12 13:47:58 GMT 36.962757 -121.626175 26,425 129 473 1536
2018-07-12 13:47:53 GMT 36.971329 -121.638992 26,250 129 472 1664
2018-07-12 13:47:50 GMT 36.976070 -121.646118 26,150 129 472 1664
2018-07-12 13:47:47 GMT 36.978165 -121.649223 26,150 129 472 1664
2018-07-12 13:47:44 GMT 36.984917 -121.659317 26,000 129 472 1728
2018-07-12 13:47:37 GMT 37.000694 -121.682961 25,675 129 471 1728
2018-07-12 13:47:31 GMT 37.004333 -121.688431 25,600 129 471 1664
2018-07-12 13:47:27 GMT 37.007812 -121.693626 25,525 129 471 1664
2018-07-12 13:47:22 GMT 37.015686 -121.705376 25,350 129 471 1664
2018-07-12 13:47:19 GMT 37.019302 -121.710747 25,300 129 470 1664
2018-07-12 13:47:16 GMT 37.023228 -121.716637 25,225 129 470 1664
2018-07-12 13:47:11 GMT 37.030209 -121.727020 25,075 129 470 1664
2018-07-12 13:47:08 GMT 37.034088 -121.732895 25,000 129 470 1728
2018-07-12 13:47:05 GMT 37.038162 -121.738914 24,925 129 470 1728
2018-07-12 13:46:59 GMT 37.046364 -121.751205 24,750 129 469 1728
2018-07-12 13:46:55 GMT 37.053360 -121.761589 24,600 129 469 1728
2018-07-12 13:46:48 GMT 37.061817 -121.774254 24,425 129 467 1728
2018-07-12 13:46:45 GMT 37.065445 -121.779648 24,300 129 467 1728
2018-07-12 13:46:42 GMT 37.070023 -121.786545 24,275 129 467 1728
2018-07-12 13:46:38 GMT 37.076439 -121.796043 24,125 129 467 1728
2018-07-12 13:46:35 GMT 37.080719 -121.802490 24,050 129 467 1728
2018-07-12 13:46:32 GMT 37.084209 -121.807632 23,875 129 467 1728
2018-07-12 13:46:29 GMT 37.088654 -121.814247 23,875 129 467 1728
2018-07-12 13:46:24 GMT 37.095989 -121.825241 23,725 129 465 1728
2018-07-12 13:46:21 GMT 37.099869 -121.831017 23,650 129 465 1728
2018-07-12 13:46:13 GMT 37.110672 -121.847084 23,425 130 464 1728
2018-07-12 13:46:10 GMT 37.115402 -121.854080 23,325 130 464 1728
2018-07-12 13:46:02 GMT 37.125870 -121.869644 23,100 130 462 1664
2018-07-12 13:45:59 GMT 37.130997 -121.877243 23,000 129 462 1664
2018-07-12 13:45:52 GMT 37.139656 -121.890144 22,500 129 458 1728
2018-07-12 13:45:49 GMT 37.144451 -121.897308 22,725 129 460 1664
2018-07-12 13:45:46 GMT 37.146500 -121.900352 22,575 129 459 1728
2018-07-12 13:45:41 GMT 37.154133 -121.911758 22,500 129 458 1728
2018-07-12 13:45:38 GMT 37.158882 -121.918922 22,425 129 457 1728
2018-07-12 13:45:35 GMT 37.161209 -121.922417 22,375 129 457 1792
2018-07-12 13:45:29 GMT 37.171219 -121.937431 22,175 129 456 1728
2018-07-12 13:45:25 GMT 37.176361 -121.945145 22,050 129 455 1728
2018-07-12 13:45:21 GMT 37.181225 -121.952484 21,900 129 455 1728
2018-07-12 13:45:17 GMT 37.187531 -121.962036 21,800 129 453 1728
2018-07-12 13:45:14 GMT 37.192200 -121.969109 21,725 129 453 1728
2018-07-12 13:45:09 GMT 37.197800 -121.977615 21,600 129 452 1728
2018-07-12 13:45:06 GMT 37.201756 -121.983711 21,450 129 450 1728
2018-07-12 13:45:02 GMT 37.206409 -121.990753 21,300 129 449 1728
2018-07-12 13:44:58 GMT 37.211426 -121.998444 21,300 129 449 1728
2018-07-12 13:44:55 GMT 37.217072 -122.007118 21,100 129 447 1728
2018-07-12 13:44:52 GMT 37.221634 -122.014160 21,075 128 447 1728
2018-07-12 13:44:49 GMT 37.224380 -122.018425 20,975 128 447 1792
2018-07-12 13:44:46 GMT 37.228134 -122.024269 20,925 128 446 1792
2018-07-12 13:44:43 GMT 37.232162 -122.030464 20,825 128 446 1792
2018-07-12 13:44:40 GMT 37.235916 -122.036308 20,750 128 445 1792
2018-07-12 13:44:37 GMT 37.240448 -122.043381 20,325 128 442 1664
2018-07-12 13:44:32 GMT 37.245575 -122.051384 20,525 128 443 1728
2018-07-12 13:44:29 GMT 37.250061 -122.058456 20,425 128 442 1664
2018-07-12 13:44:25 GMT 37.255508 -122.067108 20,300 128 442 1600
2018-07-12 13:44:22 GMT 37.259060 -122.072731 20,225 128 440 1600
2018-07-12 13:44:18 GMT 37.263763 -122.080139 20,150 128 439 1600
2018-07-12 13:44:14 GMT 37.269012 -122.088554 20,025 128 437 1600
2018-07-12 13:44:11 GMT 37.272903 -122.094749 19,600 128 434 1536
2018-07-12 13:44:06 GMT 37.278900 -122.104271 19,800 128 434 1536
2018-07-12 13:44:03 GMT 37.282894 -122.110588 19,725 128 432 1536
2018-07-12 13:43:58 GMT 37.289181 -122.120384 19,600 128 430 1472
2018-07-12 13:43:55 GMT 37.293045 -122.126411 19,525 128 428 1472
2018-07-12 13:43:52 GMT 37.297142 -122.132744 19,425 129 421 0
2018-07-12 13:43:49 GMT 37.301880 -122.140091 19,325 129 421 1984
2018-07-12 13:43:44 GMT 37.307098 -122.148102 19,225 129 422 1792
2018-07-12 13:43:41 GMT 37.310944 -122.153999 19,125 129 421 1920
2018-07-12 13:43:38 GMT 37.314789 -122.159843 19,000 129 420 2176
2018-07-12 13:43:33 GMT 37.319916 -122.167503 18,850 130 419 2496
2018-07-12 13:43:30 GMT 37.322697 -122.171608 18,750 130 419 2560
2018-07-12 13:43:27 GMT 37.328098 -122.179550 18,550 130 419 2688
2018-07-12 13:43:21 GMT 37.336060 -122.190956 18,275 131 419 2816
2018-07-12 13:43:16 GMT 37.342201 -122.199677 18,050 131 419 2816
2018-07-12 13:43:12 GMT 37.347839 -122.207710 17,825 130 419 2688
2018-07-12 13:43:09 GMT 37.349762 -122.210449 17,800 130 419 2624
2018-07-12 13:43:05 GMT 37.356354 -122.220039 17,575 130 418 2368
2018-07-12 13:42:59 GMT 37.363430 -122.230362 17,375 130 416 2112
2018-07-12 13:42:54 GMT 37.369671 -122.239555 17,225 130 415 1856
2018-07-12 13:42:49 GMT 37.376495 -122.249664 17,050 130 411 1664
2018-07-12 13:42:43 GMT 37.383179 -122.259712 16,900 129 408 1536
2018-07-12 13:42:38 GMT 37.389954 -122.269943 16,775 129 404 1600
2018-07-12 13:42:32 GMT 37.396530 -122.279861 16,625 129 402 1600
2018-07-12 13:42:26 GMT 37.403000 -122.289810 16,475 129 398 1728
2018-07-12 13:42:21 GMT 37.409286 -122.299446 16,150 128 394 1856
2018-07-12 13:42:15 GMT 37.415131 -122.308571 15,725 128 386 2368
2018-07-12 13:42:12 GMT 37.420830 -122.317421 15,975 128 389 2112
2018-07-12 13:42:09 GMT 37.423096 -122.320961 15,325 128 382 2304
2018-07-12 13:42:04 GMT 37.427673 -122.328148 15,750 128 386 2368
2018-07-12 13:41:58 GMT 37.435501 -122.340416 15,325 128 382 2304
2018-07-12 13:41:53 GMT 37.439358 -122.346497 15,350 128 382 2304
2018-07-12 13:41:47 GMT 37.447830 -122.359871 15,050 128 378 2304
2018-07-12 13:41:43 GMT 37.451340 -122.365372 14,925 128 377 2368
2018-07-12 13:41:36 GMT 37.460083 -122.378990 14,625 128 373 2240
2018-07-12 13:41:31 GMT 37.463837 -122.384949 14,500 128 371 1984
2018-07-12 13:41:25 GMT 37.471386 -122.396652 14,275 128 365 1600
2018-07-12 13:41:22 GMT 37.474644 -122.401848 14,150 128 363 1536
2018-07-12 13:41:19 GMT 37.476746 -122.405167 14,150 128 363 1536
2018-07-12 13:41:14 GMT 37.483337 -122.415688 13,950 128 354 1920
2018-07-12 13:41:11 GMT 37.485958 -122.419876 13,900 128 351 2112
2018-07-12 13:41:05 GMT 37.492081 -122.429710 13,675 128 348 2432
2018-07-12 13:41:02 GMT 37.494011 -122.432716 13,600 128 347 2560
2018-07-12 13:40:58 GMT 37.498032 -122.439003 13,375 131 341 2496
2018-07-12 13:40:53 GMT 37.504440 -122.448761 13,175 131 341 2496
2018-07-12 13:40:49 GMT 37.508331 -122.454254 13,025 134 339 2368
2018-07-12 13:40:41 GMT 37.515701 -122.463310 12,750 141 334 2432
2018-07-12 13:40:38 GMT 37.520966 -122.468422 12,475 151 328 2176
2018-07-12 13:40:34 GMT 37.524811 -122.471558 12,475 151 328 2176
2018-07-12 13:40:31 GMT 37.529480 -122.474823 12,375 156 324 1856
2018-07-12 13:40:27 GMT 37.535751 -122.478096 12,225 162 320 1664
2018-07-12 13:40:19 GMT 37.545452 -122.481377 12,050 171 313 1664
2018-07-12 13:40:16 GMT 37.551727 -122.482536 11,925 174 309 1664
2018-07-12 13:40:11 GMT 37.560562 -122.483414 11,750 176 302 1664
2018-07-12 13:40:08 GMT 37.561432 -122.483475 11,650 176 299 1792
2018-07-12 13:40:05 GMT 37.567425 -122.483948 11,600 176 297 1856
2018-07-12 13:40:00 GMT 37.574020 -122.484467 11,350 176 292 2304
2018-07-12 13:39:57 GMT 37.576859 -122.484703 11,275 176 290 2432
2018-07-12 13:39:54 GMT 37.582226 -122.485077 11,175 176 289 2560
2018-07-12 13:39:48 GMT 37.590271 -122.485695 10,900 176 286 2752
2018-07-12 13:39:43 GMT 37.596611 -122.486153 10,500 176 283 3072
2018-07-12 13:39:38 GMT 37.603592 -122.486633 10,400 177 283 3072
2018-07-12 13:39:35 GMT 37.606064 -122.486748 10,150 177 282 3136
2018-07-12 13:39:32 GMT 37.611465 -122.487099 10,100 177 281 3136
2018-07-12 13:39:26 GMT 37.618862 -122.487587 9,800 177 280 3072
2018-07-12 13:39:21 GMT 37.624969 -122.487976 9,550 177 279 3136
2018-07-12 13:39:15 GMT 37.633209 -122.488380 9,225 177 277 3136
2018-07-12 13:39:10 GMT 37.639023 -122.488678 8,875 178 275 3136
2018-07-12 13:39:07 GMT 37.641815 -122.488785 8,875 178 275 3136
2018-07-12 13:39:04 GMT 37.648544 -122.489082 8,600 177 273 3072
2018-07-12 13:38:59 GMT 37.652710 -122.489319 8,425 176 271 3008
2018-07-12 13:38:54 GMT 37.659878 -122.489853 8,150 176 269 2752
2018-07-12 13:38:50 GMT 37.664841 -122.490196 7,975 178 266 2560
2018-07-12 13:38:47 GMT 37.666946 -122.490257 7,900 179 266 2560
2018-07-12 13:38:44 GMT 37.672211 -122.490257 7,700 185 262 2688
2018-07-12 13:38:40 GMT 37.676971 -122.489784 7,525 193 261 3136
2018-07-12 13:38:36 GMT 37.681149 -122.488785 7,325 208 264 3584
2018-07-12 13:38:32 GMT 37.686859 -122.486282 7,025 210 264 3584
2018-07-12 13:38:27 GMT 37.691158 -122.483292 6,725 223 267 3520
2018-07-12 13:38:24 GMT 37.694229 -122.480423 6,525 229 269 3328
2018-07-12 13:38:21 GMT 37.697754 -122.476227 6,400 231 268 3200
2018-07-12 13:38:16 GMT 37.700867 -122.471146 6,100 244 269 2752
2018-07-12 13:38:13 GMT 37.702698 -122.467171 5,975 250 268 2624
2018-07-12 13:38:10 GMT 37.704193 -122.462868 5,925 257 267 2560
2018-07-12 13:38:05 GMT 37.705822 -122.455704 5,725 265 266 2496
2018-07-12 13:38:02 GMT 37.706177 -122.451683 5,375 276 264 2560
2018-07-12 13:37:59 GMT 37.706287 -122.446091 5,475 280 262 2560
2018-07-12 13:37:55 GMT 37.705444 -122.438538 5,175 291 259 2752
2018-07-12 13:37:52 GMT 37.704472 -122.434151 5,125 293 259 2816
2018-07-12 13:37:48 GMT 37.703217 -122.430084 4,975 296 256 2816
2018-07-12 13:37:44 GMT 37.700657 -122.423462 4,775 297 251 2304
2018-07-12 13:37:40 GMT 37.698608 -122.418388 4,650 298 222 1728
2018-07-12 13:37:37 GMT 37.697025 -122.414566 4,575 298 241 1536
2018-07-12 13:37:33 GMT 37.695053 -122.409782 4,475 298 233 1280
2018-07-12 13:37:30 GMT 37.693439 -122.405907 4,150 298 222 1664
2018-07-12 13:37:25 GMT 37.691254 -122.400536 4,275 297 219 1920
2018-07-12 13:37:22 GMT 37.689808 -122.396950 4,150 297 215 2176
2018-07-12 13:37:15 GMT 37.686596 -122.389008 3,900 297 206 2048
2018-07-12 13:37:10 GMT 37.685074 -122.385124 3,775 296 199 1472
2018-07-12 13:37:03 GMT 37.682053 -122.377174 3,575 302 187 2048
2018-07-12 13:36:59 GMT 37.680637 -122.374146 2,750 319 187 3392
2018-07-12 13:36:56 GMT 37.678265 -122.370560 3,200 319 187 3392
2018-07-12 13:36:53 GMT 37.676682 -122.368706 3,075 327 188 3264
2018-07-12 13:36:49 GMT 37.673748 -122.366203 2,875 336 189 3008
2018-07-12 13:36:42 GMT 37.667511 -122.363274 2,475 0 189 2624
2018-07-12 13:36:39 GMT 37.665207 -122.362801 2,275 359 190 2816
2018-07-12 13:36:36 GMT 37.662575 -122.362617 2,200 0 189 2624
2018-07-12 13:36:32 GMT 37.658340 -122.362617 2,025 0 185 2112
2018-07-12 13:36:27 GMT 37.654449 -122.362686 1,725 28 165 2304
2018-07-12 13:36:21 GMT 37.649597 -122.362740 1,725 1 167 2432
2018-07-12 13:36:16 GMT 37.645493 -122.362801 1,475 1 168 3136
2018-07-12 13:36:06 GMT 37.638794 -122.363327 1,075 17 165 2816
2018-07-12 13:36:03 GMT 37.636555 -122.364052 925 23 167 2688
2018-07-12 13:35:56 GMT 37.631153 -122.367332 600 28 163 2368
2018-07-12 13:35:53 GMT 37.629337 -122.368591 500 28 161 2560
2018-07-12 13:35:45 GMT 37.623962 -122.372269 125 27 161 2176
2018-07-12 13:35:41 GMT 37.621765 -122.373726 50 28 156 832
2018-07-12 13:35:31 GMT 37.615559 -122.377846 25 27 113 0
2018-07-12 13:35:06 GMT 37.608261 -122.382683 0 26 3
2018-07-12 13:33:46 GMT 37.608204 -122.382767 0 28 0
2018-07-12 13:33:31 GMT 37.608204 -122.382759 0 28 0
2018-07-12 13:32:42 GMT 37.608459 -122.383713 0 116 2
2018-07-12 13:31:24 GMT 37.608902 -122.383858 0 0 0
2018-07-12 13:31:14 GMT 37.608971 -122.383858 0 0 0
2018-07-12 13:30:25 GMT 37.609028 -122.383759 0 208 3
2018-07-12 13:29:51 GMT 37.609505 -122.383438 0 208 4
2018-07-12 13:29:48 GMT 37.609554 -122.383408 0 208 4
2018-07-12 13:29:34 GMT 37.609715 -122.383324 0 208 2
2018-07-12 13:29:25 GMT 37.609737 -122.383278 0 208 0
2018-07-12 13:29:12 GMT 37.609737 -122.383301 0 208 0
2018-07-12 13:28:52 GMT 37.609760 -122.383308 0 208 0
2018-07-12 13:28:33 GMT 37.609787 -122.383324 0 208 0
2018-07-12 13:28:03 GMT 37.609737 -122.383247 0 208 2
2018-07-12 13:27:44 GMT 37.609737 -122.383293 0 208 0
2018-07-12 13:27:34 GMT 37.609760 -122.383293 0 208 0
2018-07-12 13:24:05 GMT 37.609760 -122.383301 0 208 0
2018-07-12 13:22:44 GMT 37.609737 -122.383293 0 208 0
2018-07-12 13:21:38 GMT 37.609783 -122.383270 0 208 0
2018-07-12 13:21:03 GMT 37.610424 -122.382828 0 208 11
2018-07-12 13:20:43 GMT 37.611328 -122.382233 0 208 14
2018-07-12 13:20:35 GMT 37.611858 -122.381905 0 208 16
2018-07-12 13:20:27 GMT 37.612381 -122.381546 0 208 17
2018-07-12 13:20:13 GMT 37.613331 -122.380920 0 208 17
2018-07-12 13:20:04 GMT 37.613930 -122.380516 0 208 17
2018-07-12 13:19:54 GMT 37.614662 -122.380035 0 208 17
2018-07-12 13:19:47 GMT 37.615128 -122.379723 0 208 17
2018-07-12 13:19:42 GMT 37.615383 -122.379562 0 208 16
2018-07-12 13:19:30 GMT 37.616127 -122.379066 0 208 16
2018-07-12 13:19:20 GMT 37.616844 -122.378723 0 191 16
2018-07-12 13:19:12 GMT 37.617451 -122.378639 0 177 15
2018-07-12 13:19:06 GMT 37.617760 -122.378677 0 168 15
2018-07-12 13:18:57 GMT 37.618385 -122.378891 0 157 14
2018-07-12 13:18:40 GMT 37.619236 -122.379677 0 106 14
2018-07-12 13:18:36 GMT 37.619270 -122.379967 0 81 14
2018-07-12 13:18:23 GMT 37.619225 -122.380981 0 115 16
2018-07-12 13:18:14 GMT 37.619537 -122.381737 0 118 16
2018-07-12 13:17:46 GMT 37.620457 -122.383919 0 118 14
We lost coverage of the aircraft here for a total of 6 minutes
2018-07-12 13:11:30 GMT 37.619934 -122.385445 0 50 2
2018-07-12 13:11:03 GMT 37.619820 -122.385635 0 98 2

Making use of Plane Finder data

You are free to use the raw flight data, aircraft information and images provided in this report for your own purposes provided the data is correctly attributed to Plane Finder. We ask that you please credit Plane Finder and link to planefinder.net in close proximity to the content.

Optionally one of the following logos (no smaller then 150x24px) can be used and must link to planefinder.net

Embedding the Plane Finder map

You are welcome to embed the Plane Finder playback map on your website to offer visitors a more interactive experience. We suggest using the following HTML code:

<iframe src="//planefinder.net/data/report/UA368-N75426-7700-squawk-2018-07-12/map" width="800" height="600" seamless="seamless"></iframe>

Where our data comes from

Plane Finder has a global network of data feeds and antenna radars that receive data broadcast directly from aircraft. The primary technologies used are ADS-B and MLAT. We also show feeds from the FAA and a FLARM glider feed.

Click here to find out more about the Plane Finder network.

How we collect our data